<?xml version="1.0" encoding="utf-8"?>
<gpx xmlns:xsi="http://www.w3.org/2001/XMLSchema-instance" xmlns:xsd="http://www.w3.org/2001/XMLSchema" version="1.1" creator="Shapelink.com" xmlns="http://www.topografix.com/GPX/1/1" xmlns:gpxtpx="http://www.garmin.com/xmlschemas/TrackPointExtension/v1">
  <metadata>
    <name>Gåing 1.55 km, 2013-03-06</name>
    <desc></desc>
    <author><name>Mikael Blom</name></author> 
    <time>2013-03-06T18:31:53Z</time>
  </metadata>
  <trk>
    <name>Gåing 1.55 km, 2013-03-06</name>
    <trkseg>
      <trkpt lat="59.9790076" lon="17.7395678">
        <ele>42.4354</ele>
        <time>2013-03-06T18:31:53Z</time>
      </trkpt>
      <trkpt lat="59.9790071" lon="17.7395568">
        <ele>42.916</ele>
        <time>2013-03-06T18:31:54Z</time>
      </trkpt>
      <trkpt lat="59.9789991" lon="17.739532">
        <ele>42.916</ele>
        <time>2013-03-06T18:31:55Z</time>
      </trkpt>
      <trkpt lat="59.9789895" lon="17.7395049">
        <ele>43.3966</ele>
        <time>2013-03-06T18:31:56Z</time>
      </trkpt>
      <trkpt lat="59.9789795" lon="17.7394816">
        <ele>43.3966</ele>
        <time>2013-03-06T18:31:57Z</time>
      </trkpt>
      <trkpt lat="59.9789701" lon="17.7394693">
        <ele>43.8773</ele>
        <time>2013-03-06T18:31:58Z</time>
      </trkpt>
      <trkpt lat="59.9789608" lon="17.7394646">
        <ele>44.358</ele>
        <time>2013-03-06T18:31:59Z</time>
      </trkpt>
      <trkpt lat="59.9789444" lon="17.7394526">
        <ele>44.358</ele>
        <time>2013-03-06T18:32:00Z</time>
      </trkpt>
      <trkpt lat="59.9789324" lon="17.739461">
        <ele>44.358</ele>
        <time>2013-03-06T18:32:01Z</time>
      </trkpt>
      <trkpt lat="59.978919" lon="17.7394608">
        <ele>44.358</ele>
        <time>2013-03-06T18:32:02Z</time>
      </trkpt>
      <trkpt lat="59.9789045" lon="17.739449">
        <ele>43.8773</ele>
        <time>2013-03-06T18:32:03Z</time>
      </trkpt>
      <trkpt lat="59.9788878" lon="17.7394357">
        <ele>43.3966</ele>
        <time>2013-03-06T18:32:04Z</time>
      </trkpt>
      <trkpt lat="59.9788787" lon="17.7394532">
        <ele>44.358</ele>
        <time>2013-03-06T18:32:05Z</time>
      </trkpt>
      <trkpt lat="59.9788751" lon="17.7394881">
        <ele>45.7999</ele>
        <time>2013-03-06T18:32:06Z</time>
      </trkpt>
      <trkpt lat="59.9788698" lon="17.739519">
        <ele>47.2418</ele>
        <time>2013-03-06T18:32:07Z</time>
      </trkpt>
      <trkpt lat="59.9788734" lon="17.7395672">
        <ele>49.1646</ele>
        <time>2013-03-06T18:32:08Z</time>
      </trkpt>
      <trkpt lat="59.9788594" lon="17.7395701">
        <ele>50.126</ele>
        <time>2013-03-06T18:32:09Z</time>
      </trkpt>
      <trkpt lat="59.9788385" lon="17.7395575">
        <ele>50.126</ele>
        <time>2013-03-06T18:32:10Z</time>
      </trkpt>
      <trkpt lat="59.9788262" lon="17.7395662">
        <ele>50.6066</ele>
        <time>2013-03-06T18:32:11Z</time>
      </trkpt>
      <trkpt lat="59.9788134" lon="17.7395657">
        <ele>51.5679</ele>
        <time>2013-03-06T18:32:12Z</time>
      </trkpt>
      <trkpt lat="59.9788075" lon="17.7395942">
        <ele>53.0098</ele>
        <time>2013-03-06T18:32:13Z</time>
      </trkpt>
      <trkpt lat="59.9788024" lon="17.7396255">
        <ele>54.9324</ele>
        <time>2013-03-06T18:32:14Z</time>
      </trkpt>
      <trkpt lat="59.9787859" lon="17.7396232">
        <ele>55.8938</ele>
        <time>2013-03-06T18:32:15Z</time>
      </trkpt>
      <trkpt lat="59.978777" lon="17.7396392">
        <ele>56.8551</ele>
        <time>2013-03-06T18:32:16Z</time>
      </trkpt>
      <trkpt lat="59.9787707" lon="17.7396575">
        <ele>57.8165</ele>
        <time>2013-03-06T18:32:17Z</time>
      </trkpt>
      <trkpt lat="59.978761" lon="17.7396687">
        <ele>58.7777</ele>
        <time>2013-03-06T18:32:18Z</time>
      </trkpt>
      <trkpt lat="59.978749" lon="17.7396651">
        <ele>59.2584</ele>
        <time>2013-03-06T18:32:19Z</time>
      </trkpt>
      <trkpt lat="59.9787309" lon="17.7396444">
        <ele>58.7777</ele>
        <time>2013-03-06T18:32:20Z</time>
      </trkpt>
      <trkpt lat="59.9787093" lon="17.739619">
        <ele>57.8165</ele>
        <time>2013-03-06T18:32:21Z</time>
      </trkpt>
      <trkpt lat="59.9786936" lon="17.7396004">
        <ele>57.8165</ele>
        <time>2013-03-06T18:32:22Z</time>
      </trkpt>
      <trkpt lat="59.9786653" lon="17.7395549">
        <ele>56.3745</ele>
        <time>2013-03-06T18:32:23Z</time>
      </trkpt>
      <trkpt lat="59.978648" lon="17.7395342">
        <ele>56.3745</ele>
        <time>2013-03-06T18:32:24Z</time>
      </trkpt>
      <trkpt lat="59.97862" lon="17.7394974">
        <ele>55.4131</ele>
        <time>2013-03-06T18:32:25Z</time>
      </trkpt>
      <trkpt lat="59.9785878" lon="17.7394496">
        <ele>53.9712</ele>
        <time>2013-03-06T18:32:26Z</time>
      </trkpt>
      <trkpt lat="59.9785624" lon="17.7394246">
        <ele>53.4905</ele>
        <time>2013-03-06T18:32:27Z</time>
      </trkpt>
      <trkpt lat="59.9785464" lon="17.7394155">
        <ele>53.9712</ele>
        <time>2013-03-06T18:32:28Z</time>
      </trkpt>
      <trkpt lat="59.9785284" lon="17.7394015">
        <ele>53.4905</ele>
        <time>2013-03-06T18:32:29Z</time>
      </trkpt>
      <trkpt lat="59.9785111" lon="17.7393946">
        <ele>53.9712</ele>
        <time>2013-03-06T18:32:30Z</time>
      </trkpt>
      <trkpt lat="59.9784952" lon="17.7393883">
        <ele>53.9712</ele>
        <time>2013-03-06T18:32:31Z</time>
      </trkpt>
      <trkpt lat="59.9784788" lon="17.7393843">
        <ele>54.9324</ele>
        <time>2013-03-06T18:32:32Z</time>
      </trkpt>
      <trkpt lat="59.9784673" lon="17.7393881">
        <ele>54.9324</ele>
        <time>2013-03-06T18:32:33Z</time>
      </trkpt>
      <trkpt lat="59.9784569" lon="17.7393942">
        <ele>55.4131</ele>
        <time>2013-03-06T18:32:34Z</time>
      </trkpt>
      <trkpt lat="59.9784482" lon="17.7393931">
        <ele>55.4131</ele>
        <time>2013-03-06T18:32:35Z</time>
      </trkpt>
      <trkpt lat="59.978436" lon="17.7393853">
        <ele>55.4131</ele>
        <time>2013-03-06T18:32:36Z</time>
      </trkpt>
      <trkpt lat="59.9784239" lon="17.739375">
        <ele>54.9324</ele>
        <time>2013-03-06T18:32:37Z</time>
      </trkpt>
      <trkpt lat="59.9784063" lon="17.7393622">
        <ele>54.4518</ele>
        <time>2013-03-06T18:32:38Z</time>
      </trkpt>
      <trkpt lat="59.9783865" lon="17.7393582">
        <ele>55.4131</ele>
        <time>2013-03-06T18:32:39Z</time>
      </trkpt>
      <trkpt lat="59.9783673" lon="17.7393522">
        <ele>55.8938</ele>
        <time>2013-03-06T18:32:40Z</time>
      </trkpt>
      <trkpt lat="59.9783513" lon="17.7393503">
        <ele>56.3745</ele>
        <time>2013-03-06T18:32:41Z</time>
      </trkpt>
      <trkpt lat="59.9783413" lon="17.7393491">
        <ele>56.3745</ele>
        <time>2013-03-06T18:32:42Z</time>
      </trkpt>
      <trkpt lat="59.978332" lon="17.7393402">
        <ele>55.8938</ele>
        <time>2013-03-06T18:32:43Z</time>
      </trkpt>
      <trkpt lat="59.9783259" lon="17.7393358">
        <ele>54.9324</ele>
        <time>2013-03-06T18:32:44Z</time>
      </trkpt>
      <trkpt lat="59.9783139" lon="17.7393335">
        <ele>54.9324</ele>
        <time>2013-03-06T18:32:45Z</time>
      </trkpt>
      <trkpt lat="59.9783008" lon="17.7393301">
        <ele>54.4518</ele>
        <time>2013-03-06T18:32:46Z</time>
      </trkpt>
      <trkpt lat="59.9782825" lon="17.7393098">
        <ele>53.0098</ele>
        <time>2013-03-06T18:32:47Z</time>
      </trkpt>
      <trkpt lat="59.9782677" lon="17.7392988">
        <ele>52.5292</ele>
        <time>2013-03-06T18:32:48Z</time>
      </trkpt>
      <trkpt lat="59.9782565" lon="17.7392922">
        <ele>52.0486</ele>
        <time>2013-03-06T18:32:49Z</time>
      </trkpt>
      <trkpt lat="59.9782426" lon="17.7392844">
        <ele>51.0872</ele>
        <time>2013-03-06T18:32:50Z</time>
      </trkpt>
      <trkpt lat="59.9782294" lon="17.7392793">
        <ele>50.6066</ele>
        <time>2013-03-06T18:32:51Z</time>
      </trkpt>
      <trkpt lat="59.9782154" lon="17.7392739">
        <ele>50.126</ele>
        <time>2013-03-06T18:32:52Z</time>
      </trkpt>
      <trkpt lat="59.9781994" lon="17.7392687">
        <ele>49.6453</ele>
        <time>2013-03-06T18:32:53Z</time>
      </trkpt>
      <trkpt lat="59.9781833" lon="17.7392629">
        <ele>49.1646</ele>
        <time>2013-03-06T18:32:54Z</time>
      </trkpt>
      <trkpt lat="59.9781663" lon="17.7392565">
        <ele>49.1646</ele>
        <time>2013-03-06T18:32:55Z</time>
      </trkpt>
      <trkpt lat="59.9781534" lon="17.7392487">
        <ele>48.2034</ele>
        <time>2013-03-06T18:32:56Z</time>
      </trkpt>
      <trkpt lat="59.978143" lon="17.7392471">
        <ele>47.7225</ele>
        <time>2013-03-06T18:32:57Z</time>
      </trkpt>
      <trkpt lat="59.978132" lon="17.739242">
        <ele>47.2418</ele>
        <time>2013-03-06T18:32:58Z</time>
      </trkpt>
      <trkpt lat="59.9781208" lon="17.7392352">
        <ele>47.2418</ele>
        <time>2013-03-06T18:32:59Z</time>
      </trkpt>
      <trkpt lat="59.9781081" lon="17.7392275">
        <ele>46.7612</ele>
        <time>2013-03-06T18:33:00Z</time>
      </trkpt>
      <trkpt lat="59.9780953" lon="17.7392207">
        <ele>46.7612</ele>
        <time>2013-03-06T18:33:01Z</time>
      </trkpt>
      <trkpt lat="59.9780814" lon="17.7392196">
        <ele>46.7612</ele>
        <time>2013-03-06T18:33:02Z</time>
      </trkpt>
      <trkpt lat="59.9780643" lon="17.7392184">
        <ele>46.2806</ele>
        <time>2013-03-06T18:33:03Z</time>
      </trkpt>
      <trkpt lat="59.9780492" lon="17.7392143">
        <ele>46.2806</ele>
        <time>2013-03-06T18:33:04Z</time>
      </trkpt>
      <trkpt lat="59.9780346" lon="17.7392146">
        <ele>45.7999</ele>
        <time>2013-03-06T18:33:05Z</time>
      </trkpt>
      <trkpt lat="59.978025" lon="17.7392151">
        <ele>44.8386</ele>
        <time>2013-03-06T18:33:06Z</time>
      </trkpt>
      <trkpt lat="59.9780149" lon="17.7392109">
        <ele>44.358</ele>
        <time>2013-03-06T18:33:07Z</time>
      </trkpt>
      <trkpt lat="59.9780047" lon="17.7392025">
        <ele>43.8773</ele>
        <time>2013-03-06T18:33:08Z</time>
      </trkpt>
      <trkpt lat="59.9779969" lon="17.7391931">
        <ele>43.3966</ele>
        <time>2013-03-06T18:33:09Z</time>
      </trkpt>
      <trkpt lat="59.9779871" lon="17.7391823">
        <ele>42.916</ele>
        <time>2013-03-06T18:33:10Z</time>
      </trkpt>
      <trkpt lat="59.9779757" lon="17.7391714">
        <ele>42.916</ele>
        <time>2013-03-06T18:33:11Z</time>
      </trkpt>
      <trkpt lat="59.9779658" lon="17.7391583">
        <ele>42.4354</ele>
        <time>2013-03-06T18:33:12Z</time>
      </trkpt>
      <trkpt lat="59.977956" lon="17.7391444">
        <ele>41.9547</ele>
        <time>2013-03-06T18:33:13Z</time>
      </trkpt>
      <trkpt lat="59.9779451" lon="17.7391319">
        <ele>41.9547</ele>
        <time>2013-03-06T18:33:14Z</time>
      </trkpt>
      <trkpt lat="59.9779322" lon="17.7391233">
        <ele>41.9547</ele>
        <time>2013-03-06T18:33:15Z</time>
      </trkpt>
      <trkpt lat="59.9779186" lon="17.7391163">
        <ele>41.9547</ele>
        <time>2013-03-06T18:33:16Z</time>
      </trkpt>
      <trkpt lat="59.9779036" lon="17.7391103">
        <ele>42.4354</ele>
        <time>2013-03-06T18:33:17Z</time>
      </trkpt>
      <trkpt lat="59.9778907" lon="17.7391009">
        <ele>41.9547</ele>
        <time>2013-03-06T18:33:18Z</time>
      </trkpt>
      <trkpt lat="59.9778773" lon="17.739091">
        <ele>41.9547</ele>
        <time>2013-03-06T18:33:19Z</time>
      </trkpt>
      <trkpt lat="59.9778648" lon="17.7390829">
        <ele>41.9547</ele>
        <time>2013-03-06T18:33:20Z</time>
      </trkpt>
      <trkpt lat="59.9778537" lon="17.7390755">
        <ele>41.9547</ele>
        <time>2013-03-06T18:33:21Z</time>
      </trkpt>
      <trkpt lat="59.9778436" lon="17.7390647">
        <ele>40.9934</ele>
        <time>2013-03-06T18:33:22Z</time>
      </trkpt>
      <trkpt lat="59.9778311" lon="17.7390533">
        <ele>40.5128</ele>
        <time>2013-03-06T18:33:23Z</time>
      </trkpt>
      <trkpt lat="59.9778177" lon="17.7390444">
        <ele>40.5128</ele>
        <time>2013-03-06T18:33:24Z</time>
      </trkpt>
      <trkpt lat="59.9778082" lon="17.7390331">
        <ele>39.5513</ele>
        <time>2013-03-06T18:33:25Z</time>
      </trkpt>
      <trkpt lat="59.9777964" lon="17.7390215">
        <ele>39.5513</ele>
        <time>2013-03-06T18:33:26Z</time>
      </trkpt>
      <trkpt lat="59.9777835" lon="17.7390127">
        <ele>39.5513</ele>
        <time>2013-03-06T18:33:27Z</time>
      </trkpt>
      <trkpt lat="59.9777719" lon="17.7390102">
        <ele>39.0707</ele>
        <time>2013-03-06T18:33:28Z</time>
      </trkpt>
      <trkpt lat="59.977756" lon="17.7390093">
        <ele>39.5513</ele>
        <time>2013-03-06T18:33:29Z</time>
      </trkpt>
      <trkpt lat="59.977738" lon="17.7390055">
        <ele>39.5513</ele>
        <time>2013-03-06T18:33:30Z</time>
      </trkpt>
      <trkpt lat="59.9777248" lon="17.739">
        <ele>39.5513</ele>
        <time>2013-03-06T18:33:31Z</time>
      </trkpt>
      <trkpt lat="59.9777105" lon="17.7389953">
        <ele>39.0707</ele>
        <time>2013-03-06T18:33:32Z</time>
      </trkpt>
      <trkpt lat="59.9776953" lon="17.73899">
        <ele>39.0707</ele>
        <time>2013-03-06T18:33:33Z</time>
      </trkpt>
      <trkpt lat="59.9776781" lon="17.7389896">
        <ele>39.0707</ele>
        <time>2013-03-06T18:33:34Z</time>
      </trkpt>
      <trkpt lat="59.9776606" lon="17.7389933">
        <ele>39.0707</ele>
        <time>2013-03-06T18:33:35Z</time>
      </trkpt>
      <trkpt lat="59.9776409" lon="17.7389957">
        <ele>39.5513</ele>
        <time>2013-03-06T18:33:36Z</time>
      </trkpt>
      <trkpt lat="59.9776166" lon="17.7389984">
        <ele>40.5128</ele>
        <time>2013-03-06T18:33:37Z</time>
      </trkpt>
      <trkpt lat="59.9775995" lon="17.7389978">
        <ele>40.5128</ele>
        <time>2013-03-06T18:33:38Z</time>
      </trkpt>
      <trkpt lat="59.9775804" lon="17.7390004">
        <ele>40.9934</ele>
        <time>2013-03-06T18:33:39Z</time>
      </trkpt>
      <trkpt lat="59.9775572" lon="17.7390034">
        <ele>41.474</ele>
        <time>2013-03-06T18:33:40Z</time>
      </trkpt>
      <trkpt lat="59.9775399" lon="17.739001">
        <ele>41.474</ele>
        <time>2013-03-06T18:33:41Z</time>
      </trkpt>
      <trkpt lat="59.9775205" lon="17.7390022">
        <ele>41.474</ele>
        <time>2013-03-06T18:33:42Z</time>
      </trkpt>
      <trkpt lat="59.977503" lon="17.7390015">
        <ele>41.474</ele>
        <time>2013-03-06T18:33:43Z</time>
      </trkpt>
      <trkpt lat="59.9774845" lon="17.7390017">
        <ele>41.474</ele>
        <time>2013-03-06T18:33:44Z</time>
      </trkpt>
      <trkpt lat="59.9774655" lon="17.739004">
        <ele>41.9547</ele>
        <time>2013-03-06T18:33:45Z</time>
      </trkpt>
      <trkpt lat="59.9774525" lon="17.7390034">
        <ele>41.9547</ele>
        <time>2013-03-06T18:33:46Z</time>
      </trkpt>
      <trkpt lat="59.9774416" lon="17.7390037">
        <ele>41.9547</ele>
        <time>2013-03-06T18:33:47Z</time>
      </trkpt>
      <trkpt lat="59.9774246" lon="17.7390088">
        <ele>42.4354</ele>
        <time>2013-03-06T18:33:48Z</time>
      </trkpt>
      <trkpt lat="59.9774077" lon="17.7390167">
        <ele>42.4354</ele>
        <time>2013-03-06T18:33:49Z</time>
      </trkpt>
      <trkpt lat="59.9773946" lon="17.7390216">
        <ele>42.4354</ele>
        <time>2013-03-06T18:33:50Z</time>
      </trkpt>
      <trkpt lat="59.9773804" lon="17.7390254">
        <ele>42.4354</ele>
        <time>2013-03-06T18:33:51Z</time>
      </trkpt>
      <trkpt lat="59.9773644" lon="17.739033">
        <ele>42.4354</ele>
        <time>2013-03-06T18:33:52Z</time>
      </trkpt>
      <trkpt lat="59.9773515" lon="17.7390398">
        <ele>42.916</ele>
        <time>2013-03-06T18:33:53Z</time>
      </trkpt>
      <trkpt lat="59.9773402" lon="17.7390467">
        <ele>42.916</ele>
        <time>2013-03-06T18:33:54Z</time>
      </trkpt>
      <trkpt lat="59.9773313" lon="17.7390545">
        <ele>41.9547</ele>
        <time>2013-03-06T18:33:55Z</time>
      </trkpt>
      <trkpt lat="59.9773223" lon="17.7390612">
        <ele>41.474</ele>
        <time>2013-03-06T18:33:56Z</time>
      </trkpt>
      <trkpt lat="59.9773131" lon="17.7390684">
        <ele>40.5128</ele>
        <time>2013-03-06T18:33:57Z</time>
      </trkpt>
      <trkpt lat="59.9773031" lon="17.7390747">
        <ele>40.0321</ele>
        <time>2013-03-06T18:33:58Z</time>
      </trkpt>
      <trkpt lat="59.977293" lon="17.7390804">
        <ele>39.0707</ele>
        <time>2013-03-06T18:33:59Z</time>
      </trkpt>
      <trkpt lat="59.977282" lon="17.7390868">
        <ele>38.5901</ele>
        <time>2013-03-06T18:34:00Z</time>
      </trkpt>
      <trkpt lat="59.9772689" lon="17.7390916">
        <ele>38.5901</ele>
        <time>2013-03-06T18:34:01Z</time>
      </trkpt>
      <trkpt lat="59.9772583" lon="17.7390974">
        <ele>38.1094</ele>
        <time>2013-03-06T18:34:02Z</time>
      </trkpt>
      <trkpt lat="59.9772484" lon="17.7391099">
        <ele>37.6287</ele>
        <time>2013-03-06T18:34:03Z</time>
      </trkpt>
      <trkpt lat="59.9772383" lon="17.7391253">
        <ele>37.6287</ele>
        <time>2013-03-06T18:34:04Z</time>
      </trkpt>
      <trkpt lat="59.9772272" lon="17.7391376">
        <ele>37.1481</ele>
        <time>2013-03-06T18:34:05Z</time>
      </trkpt>
      <trkpt lat="59.9772164" lon="17.7391503">
        <ele>37.1481</ele>
        <time>2013-03-06T18:34:06Z</time>
      </trkpt>
      <trkpt lat="59.977206" lon="17.7391648">
        <ele>36.6675</ele>
        <time>2013-03-06T18:34:07Z</time>
      </trkpt>
      <trkpt lat="59.9771945" lon="17.7391761">
        <ele>36.6675</ele>
        <time>2013-03-06T18:34:08Z</time>
      </trkpt>
      <trkpt lat="59.9771837" lon="17.7391839">
        <ele>36.1868</ele>
        <time>2013-03-06T18:34:09Z</time>
      </trkpt>
      <trkpt lat="59.9771731" lon="17.7391987">
        <ele>36.1868</ele>
        <time>2013-03-06T18:34:10Z</time>
      </trkpt>
      <trkpt lat="59.9771614" lon="17.7392119">
        <ele>35.7061</ele>
        <time>2013-03-06T18:34:11Z</time>
      </trkpt>
      <trkpt lat="59.9771513" lon="17.7392331">
        <ele>35.7061</ele>
        <time>2013-03-06T18:34:12Z</time>
      </trkpt>
      <trkpt lat="59.9771422" lon="17.7392508">
        <ele>34.7449</ele>
        <time>2013-03-06T18:34:13Z</time>
      </trkpt>
      <trkpt lat="59.9771302" lon="17.7392552">
        <ele>34.7449</ele>
        <time>2013-03-06T18:34:14Z</time>
      </trkpt>
      <trkpt lat="59.9771205" lon="17.73926">
        <ele>34.2642</ele>
        <time>2013-03-06T18:34:15Z</time>
      </trkpt>
      <trkpt lat="59.9771079" lon="17.7392731">
        <ele>34.2642</ele>
        <time>2013-03-06T18:34:16Z</time>
      </trkpt>
      <trkpt lat="59.9770977" lon="17.739284">
        <ele>34.2642</ele>
        <time>2013-03-06T18:34:17Z</time>
      </trkpt>
      <trkpt lat="59.9770886" lon="17.7392928">
        <ele>34.2642</ele>
        <time>2013-03-06T18:34:18Z</time>
      </trkpt>
      <trkpt lat="59.9770783" lon="17.7393004">
        <ele>33.7834</ele>
        <time>2013-03-06T18:34:19Z</time>
      </trkpt>
      <trkpt lat="59.977065" lon="17.7393075">
        <ele>33.7834</ele>
        <time>2013-03-06T18:34:20Z</time>
      </trkpt>
      <trkpt lat="59.9770506" lon="17.7393135">
        <ele>34.2642</ele>
        <time>2013-03-06T18:34:21Z</time>
      </trkpt>
      <trkpt lat="59.977034" lon="17.7393217">
        <ele>34.7449</ele>
        <time>2013-03-06T18:34:22Z</time>
      </trkpt>
      <trkpt lat="59.9770157" lon="17.7393278">
        <ele>35.2255</ele>
        <time>2013-03-06T18:34:23Z</time>
      </trkpt>
      <trkpt lat="59.9769977" lon="17.7393367">
        <ele>35.7061</ele>
        <time>2013-03-06T18:34:24Z</time>
      </trkpt>
      <trkpt lat="59.9769837" lon="17.7393391">
        <ele>35.7061</ele>
        <time>2013-03-06T18:34:25Z</time>
      </trkpt>
      <trkpt lat="59.9769702" lon="17.7393443">
        <ele>35.7061</ele>
        <time>2013-03-06T18:34:26Z</time>
      </trkpt>
      <trkpt lat="59.9769562" lon="17.7393425">
        <ele>35.7061</ele>
        <time>2013-03-06T18:34:27Z</time>
      </trkpt>
      <trkpt lat="59.9769423" lon="17.7393469">
        <ele>35.7061</ele>
        <time>2013-03-06T18:34:28Z</time>
      </trkpt>
      <trkpt lat="59.9769279" lon="17.7393532">
        <ele>36.1868</ele>
        <time>2013-03-06T18:34:29Z</time>
      </trkpt>
      <trkpt lat="59.9769147" lon="17.7393612">
        <ele>36.6675</ele>
        <time>2013-03-06T18:34:30Z</time>
      </trkpt>
      <trkpt lat="59.9769037" lon="17.7393665">
        <ele>36.1868</ele>
        <time>2013-03-06T18:34:31Z</time>
      </trkpt>
      <trkpt lat="59.9768895" lon="17.7393707">
        <ele>36.1868</ele>
        <time>2013-03-06T18:34:32Z</time>
      </trkpt>
      <trkpt lat="59.9768765" lon="17.7393767">
        <ele>36.1868</ele>
        <time>2013-03-06T18:34:33Z</time>
      </trkpt>
      <trkpt lat="59.9768638" lon="17.7393833">
        <ele>36.1868</ele>
        <time>2013-03-06T18:34:34Z</time>
      </trkpt>
      <trkpt lat="59.9768515" lon="17.7393873">
        <ele>36.1868</ele>
        <time>2013-03-06T18:34:35Z</time>
      </trkpt>
      <trkpt lat="59.9768381" lon="17.7393909">
        <ele>36.1868</ele>
        <time>2013-03-06T18:34:36Z</time>
      </trkpt>
      <trkpt lat="59.9768256" lon="17.7393932">
        <ele>36.1868</ele>
        <time>2013-03-06T18:34:37Z</time>
      </trkpt>
      <trkpt lat="59.9768129" lon="17.7393963">
        <ele>35.7061</ele>
        <time>2013-03-06T18:34:38Z</time>
      </trkpt>
      <trkpt lat="59.9768002" lon="17.7394014">
        <ele>35.7061</ele>
        <time>2013-03-06T18:34:39Z</time>
      </trkpt>
      <trkpt lat="59.9767874" lon="17.7394075">
        <ele>35.2255</ele>
        <time>2013-03-06T18:34:40Z</time>
      </trkpt>
      <trkpt lat="59.976774" lon="17.7394134">
        <ele>35.2255</ele>
        <time>2013-03-06T18:34:41Z</time>
      </trkpt>
      <trkpt lat="59.9767598" lon="17.7394166">
        <ele>35.2255</ele>
        <time>2013-03-06T18:34:42Z</time>
      </trkpt>
      <trkpt lat="59.9767458" lon="17.7394222">
        <ele>35.2255</ele>
        <time>2013-03-06T18:34:43Z</time>
      </trkpt>
      <trkpt lat="59.9767312" lon="17.7394305">
        <ele>35.2255</ele>
        <time>2013-03-06T18:34:44Z</time>
      </trkpt>
      <trkpt lat="59.9767172" lon="17.7394373">
        <ele>35.7061</ele>
        <time>2013-03-06T18:34:45Z</time>
      </trkpt>
      <trkpt lat="59.9767041" lon="17.7394398">
        <ele>35.2255</ele>
        <time>2013-03-06T18:34:46Z</time>
      </trkpt>
      <trkpt lat="59.9766905" lon="17.7394475">
        <ele>35.2255</ele>
        <time>2013-03-06T18:34:47Z</time>
      </trkpt>
      <trkpt lat="59.9766766" lon="17.7394569">
        <ele>35.2255</ele>
        <time>2013-03-06T18:34:48Z</time>
      </trkpt>
      <trkpt lat="59.9766626" lon="17.7394665">
        <ele>35.2255</ele>
        <time>2013-03-06T18:34:49Z</time>
      </trkpt>
      <trkpt lat="59.9766487" lon="17.7394759">
        <ele>35.7061</ele>
        <time>2013-03-06T18:34:50Z</time>
      </trkpt>
      <trkpt lat="59.9766352" lon="17.7394895">
        <ele>35.7061</ele>
        <time>2013-03-06T18:34:51Z</time>
      </trkpt>
      <trkpt lat="59.976622" lon="17.7395035">
        <ele>35.7061</ele>
        <time>2013-03-06T18:34:52Z</time>
      </trkpt>
      <trkpt lat="59.97661" lon="17.7395131">
        <ele>35.2255</ele>
        <time>2013-03-06T18:34:53Z</time>
      </trkpt>
      <trkpt lat="59.9765983" lon="17.7395211">
        <ele>35.2255</ele>
        <time>2013-03-06T18:34:54Z</time>
      </trkpt>
      <trkpt lat="59.9765869" lon="17.7395302">
        <ele>35.2255</ele>
        <time>2013-03-06T18:34:55Z</time>
      </trkpt>
      <trkpt lat="59.9765745" lon="17.7395421">
        <ele>35.2255</ele>
        <time>2013-03-06T18:34:56Z</time>
      </trkpt>
      <trkpt lat="59.9765627" lon="17.7395539">
        <ele>35.2255</ele>
        <time>2013-03-06T18:34:57Z</time>
      </trkpt>
      <trkpt lat="59.9765491" lon="17.739565">
        <ele>35.2255</ele>
        <time>2013-03-06T18:34:58Z</time>
      </trkpt>
      <trkpt lat="59.9765347" lon="17.7395729">
        <ele>35.2255</ele>
        <time>2013-03-06T18:34:59Z</time>
      </trkpt>
      <trkpt lat="59.9765237" lon="17.7395851">
        <ele>35.2255</ele>
        <time>2013-03-06T18:35:00Z</time>
      </trkpt>
      <trkpt lat="59.9765145" lon="17.7395997">
        <ele>34.7449</ele>
        <time>2013-03-06T18:35:01Z</time>
      </trkpt>
      <trkpt lat="59.9765043" lon="17.73961">
        <ele>34.7449</ele>
        <time>2013-03-06T18:35:02Z</time>
      </trkpt>
      <trkpt lat="59.9764957" lon="17.7396261">
        <ele>34.7449</ele>
        <time>2013-03-06T18:35:03Z</time>
      </trkpt>
      <trkpt lat="59.976488" lon="17.7396406">
        <ele>34.2642</ele>
        <time>2013-03-06T18:35:04Z</time>
      </trkpt>
      <trkpt lat="59.9764785" lon="17.7396538">
        <ele>34.2642</ele>
        <time>2013-03-06T18:35:05Z</time>
      </trkpt>
      <trkpt lat="59.9764683" lon="17.739668">
        <ele>34.2642</ele>
        <time>2013-03-06T18:35:06Z</time>
      </trkpt>
      <trkpt lat="59.9764565" lon="17.7396803">
        <ele>34.2642</ele>
        <time>2013-03-06T18:35:07Z</time>
      </trkpt>
      <trkpt lat="59.9764437" lon="17.7396931">
        <ele>34.2642</ele>
        <time>2013-03-06T18:35:08Z</time>
      </trkpt>
      <trkpt lat="59.9764325" lon="17.7397086">
        <ele>34.2642</ele>
        <time>2013-03-06T18:35:09Z</time>
      </trkpt>
      <trkpt lat="59.9764225" lon="17.7397257">
        <ele>34.2642</ele>
        <time>2013-03-06T18:35:10Z</time>
      </trkpt>
      <trkpt lat="59.9764123" lon="17.7397439">
        <ele>34.2642</ele>
        <time>2013-03-06T18:35:11Z</time>
      </trkpt>
      <trkpt lat="59.9764023" lon="17.7397654">
        <ele>34.7449</ele>
        <time>2013-03-06T18:35:12Z</time>
      </trkpt>
      <trkpt lat="59.9763926" lon="17.7397832">
        <ele>34.7449</ele>
        <time>2013-03-06T18:35:13Z</time>
      </trkpt>
      <trkpt lat="59.9763823" lon="17.7398019">
        <ele>34.7449</ele>
        <time>2013-03-06T18:35:14Z</time>
      </trkpt>
      <trkpt lat="59.9763729" lon="17.7398199">
        <ele>34.7449</ele>
        <time>2013-03-06T18:35:15Z</time>
      </trkpt>
      <trkpt lat="59.9763636" lon="17.739839">
        <ele>34.7449</ele>
        <time>2013-03-06T18:35:16Z</time>
      </trkpt>
      <trkpt lat="59.9763546" lon="17.7398602">
        <ele>34.7449</ele>
        <time>2013-03-06T18:35:17Z</time>
      </trkpt>
      <trkpt lat="59.9763454" lon="17.7398848">
        <ele>34.7449</ele>
        <time>2013-03-06T18:35:18Z</time>
      </trkpt>
      <trkpt lat="59.9763367" lon="17.7399079">
        <ele>34.7449</ele>
        <time>2013-03-06T18:35:19Z</time>
      </trkpt>
      <trkpt lat="59.976328" lon="17.7399309">
        <ele>34.7449</ele>
        <time>2013-03-06T18:35:20Z</time>
      </trkpt>
      <trkpt lat="59.9763197" lon="17.7399505">
        <ele>34.7449</ele>
        <time>2013-03-06T18:35:21Z</time>
      </trkpt>
      <trkpt lat="59.9763117" lon="17.739974">
        <ele>34.7449</ele>
        <time>2013-03-06T18:35:22Z</time>
      </trkpt>
      <trkpt lat="59.9763041" lon="17.7399991">
        <ele>34.7449</ele>
        <time>2013-03-06T18:35:23Z</time>
      </trkpt>
      <trkpt lat="59.9762971" lon="17.7400225">
        <ele>35.2255</ele>
        <time>2013-03-06T18:35:24Z</time>
      </trkpt>
      <trkpt lat="59.9762897" lon="17.7400458">
        <ele>35.2255</ele>
        <time>2013-03-06T18:35:25Z</time>
      </trkpt>
      <trkpt lat="59.9762814" lon="17.7400702">
        <ele>35.7061</ele>
        <time>2013-03-06T18:35:26Z</time>
      </trkpt>
      <trkpt lat="59.9762744" lon="17.7400952">
        <ele>35.7061</ele>
        <time>2013-03-06T18:35:27Z</time>
      </trkpt>
      <trkpt lat="59.9762679" lon="17.7401209">
        <ele>35.7061</ele>
        <time>2013-03-06T18:35:28Z</time>
      </trkpt>
      <trkpt lat="59.9762619" lon="17.7401453">
        <ele>35.7061</ele>
        <time>2013-03-06T18:35:29Z</time>
      </trkpt>
      <trkpt lat="59.9762554" lon="17.7401684">
        <ele>36.1868</ele>
        <time>2013-03-06T18:35:30Z</time>
      </trkpt>
      <trkpt lat="59.9762479" lon="17.7401948">
        <ele>36.6675</ele>
        <time>2013-03-06T18:35:31Z</time>
      </trkpt>
      <trkpt lat="59.9762408" lon="17.7402208">
        <ele>36.6675</ele>
        <time>2013-03-06T18:35:32Z</time>
      </trkpt>
      <trkpt lat="59.9762336" lon="17.7402447">
        <ele>37.1481</ele>
        <time>2013-03-06T18:35:33Z</time>
      </trkpt>
      <trkpt lat="59.9762259" lon="17.7402702">
        <ele>37.1481</ele>
        <time>2013-03-06T18:35:34Z</time>
      </trkpt>
      <trkpt lat="59.976219" lon="17.7402933">
        <ele>37.6287</ele>
        <time>2013-03-06T18:35:35Z</time>
      </trkpt>
      <trkpt lat="59.9762115" lon="17.7403129">
        <ele>37.6287</ele>
        <time>2013-03-06T18:35:36Z</time>
      </trkpt>
      <trkpt lat="59.9762042" lon="17.7403338">
        <ele>37.1481</ele>
        <time>2013-03-06T18:35:37Z</time>
      </trkpt>
      <trkpt lat="59.9761962" lon="17.7403536">
        <ele>37.1481</ele>
        <time>2013-03-06T18:35:38Z</time>
      </trkpt>
      <trkpt lat="59.9761875" lon="17.7403739">
        <ele>37.1481</ele>
        <time>2013-03-06T18:35:39Z</time>
      </trkpt>
      <trkpt lat="59.9761797" lon="17.7403953">
        <ele>37.1481</ele>
        <time>2013-03-06T18:35:40Z</time>
      </trkpt>
      <trkpt lat="59.9761719" lon="17.7404163">
        <ele>37.1481</ele>
        <time>2013-03-06T18:35:41Z</time>
      </trkpt>
      <trkpt lat="59.9761646" lon="17.7404367">
        <ele>36.6675</ele>
        <time>2013-03-06T18:35:42Z</time>
      </trkpt>
      <trkpt lat="59.9761571" lon="17.7404577">
        <ele>36.6675</ele>
        <time>2013-03-06T18:35:43Z</time>
      </trkpt>
      <trkpt lat="59.9761487" lon="17.7404815">
        <ele>37.1481</ele>
        <time>2013-03-06T18:35:44Z</time>
      </trkpt>
      <trkpt lat="59.9761407" lon="17.7405011">
        <ele>37.1481</ele>
        <time>2013-03-06T18:35:45Z</time>
      </trkpt>
      <trkpt lat="59.9761329" lon="17.7405189">
        <ele>36.6675</ele>
        <time>2013-03-06T18:35:46Z</time>
      </trkpt>
      <trkpt lat="59.9761251" lon="17.7405385">
        <ele>36.6675</ele>
        <time>2013-03-06T18:35:47Z</time>
      </trkpt>
      <trkpt lat="59.9761172" lon="17.7405596">
        <ele>36.6675</ele>
        <time>2013-03-06T18:35:48Z</time>
      </trkpt>
      <trkpt lat="59.9761098" lon="17.7405809">
        <ele>36.6675</ele>
        <time>2013-03-06T18:35:49Z</time>
      </trkpt>
      <trkpt lat="59.9761021" lon="17.7405986">
        <ele>36.6675</ele>
        <time>2013-03-06T18:35:50Z</time>
      </trkpt>
      <trkpt lat="59.9760871" lon="17.7406358">
        <ele>36.1868</ele>
        <time>2013-03-06T18:35:52Z</time>
      </trkpt>
      <trkpt lat="59.9760807" lon="17.7406556">
        <ele>36.1868</ele>
        <time>2013-03-06T18:35:53Z</time>
      </trkpt>
      <trkpt lat="59.9760741" lon="17.7406756">
        <ele>36.1868</ele>
        <time>2013-03-06T18:35:54Z</time>
      </trkpt>
      <trkpt lat="59.9760679" lon="17.7406964">
        <ele>35.7061</ele>
        <time>2013-03-06T18:35:55Z</time>
      </trkpt>
      <trkpt lat="59.9760617" lon="17.7407172">
        <ele>35.7061</ele>
        <time>2013-03-06T18:35:56Z</time>
      </trkpt>
      <trkpt lat="59.9760552" lon="17.7407401">
        <ele>35.7061</ele>
        <time>2013-03-06T18:35:57Z</time>
      </trkpt>
      <trkpt lat="59.976049" lon="17.7407639">
        <ele>35.7061</ele>
        <time>2013-03-06T18:35:58Z</time>
      </trkpt>
      <trkpt lat="59.976043" lon="17.7407887">
        <ele>35.7061</ele>
        <time>2013-03-06T18:35:59Z</time>
      </trkpt>
      <trkpt lat="59.9760377" lon="17.7408108">
        <ele>35.7061</ele>
        <time>2013-03-06T18:36:00Z</time>
      </trkpt>
      <trkpt lat="59.9760306" lon="17.7408312">
        <ele>35.7061</ele>
        <time>2013-03-06T18:36:01Z</time>
      </trkpt>
      <trkpt lat="59.9760228" lon="17.7408513">
        <ele>35.7061</ele>
        <time>2013-03-06T18:36:02Z</time>
      </trkpt>
      <trkpt lat="59.9760153" lon="17.7408695">
        <ele>35.2255</ele>
        <time>2013-03-06T18:36:03Z</time>
      </trkpt>
      <trkpt lat="59.9760065" lon="17.7408923">
        <ele>35.2255</ele>
        <time>2013-03-06T18:36:04Z</time>
      </trkpt>
      <trkpt lat="59.9759984" lon="17.7409159">
        <ele>34.7449</ele>
        <time>2013-03-06T18:36:05Z</time>
      </trkpt>
      <trkpt lat="59.9759922" lon="17.740942">
        <ele>34.7449</ele>
        <time>2013-03-06T18:36:06Z</time>
      </trkpt>
      <trkpt lat="59.9759855" lon="17.7409684">
        <ele>34.7449</ele>
        <time>2013-03-06T18:36:07Z</time>
      </trkpt>
      <trkpt lat="59.9759792" lon="17.7409911">
        <ele>34.2642</ele>
        <time>2013-03-06T18:36:08Z</time>
      </trkpt>
      <trkpt lat="59.975972" lon="17.7410145">
        <ele>34.2642</ele>
        <time>2013-03-06T18:36:09Z</time>
      </trkpt>
      <trkpt lat="59.9759657" lon="17.7410373">
        <ele>34.2642</ele>
        <time>2013-03-06T18:36:10Z</time>
      </trkpt>
      <trkpt lat="59.9759589" lon="17.7410617">
        <ele>33.7834</ele>
        <time>2013-03-06T18:36:11Z</time>
      </trkpt>
      <trkpt lat="59.9759513" lon="17.741089">
        <ele>33.7834</ele>
        <time>2013-03-06T18:36:12Z</time>
      </trkpt>
      <trkpt lat="59.9759441" lon="17.741115">
        <ele>33.7834</ele>
        <time>2013-03-06T18:36:13Z</time>
      </trkpt>
      <trkpt lat="59.9759373" lon="17.7411446">
        <ele>33.7834</ele>
        <time>2013-03-06T18:36:14Z</time>
      </trkpt>
      <trkpt lat="59.9759321" lon="17.7411734">
        <ele>33.7834</ele>
        <time>2013-03-06T18:36:15Z</time>
      </trkpt>
      <trkpt lat="59.9759283" lon="17.7412011">
        <ele>33.7834</ele>
        <time>2013-03-06T18:36:16Z</time>
      </trkpt>
      <trkpt lat="59.9759234" lon="17.74123">
        <ele>33.3029</ele>
        <time>2013-03-06T18:36:17Z</time>
      </trkpt>
      <trkpt lat="59.9759167" lon="17.741256">
        <ele>33.3029</ele>
        <time>2013-03-06T18:36:18Z</time>
      </trkpt>
      <trkpt lat="59.9759093" lon="17.7412811">
        <ele>33.3029</ele>
        <time>2013-03-06T18:36:19Z</time>
      </trkpt>
      <trkpt lat="59.9759031" lon="17.7413046">
        <ele>33.3029</ele>
        <time>2013-03-06T18:36:20Z</time>
      </trkpt>
      <trkpt lat="59.9758969" lon="17.7413293">
        <ele>33.3029</ele>
        <time>2013-03-06T18:36:21Z</time>
      </trkpt>
      <trkpt lat="59.9758907" lon="17.7413559">
        <ele>33.3029</ele>
        <time>2013-03-06T18:36:22Z</time>
      </trkpt>
      <trkpt lat="59.9758835" lon="17.7413828">
        <ele>33.3029</ele>
        <time>2013-03-06T18:36:23Z</time>
      </trkpt>
      <trkpt lat="59.9758768" lon="17.7414051">
        <ele>33.3029</ele>
        <time>2013-03-06T18:36:24Z</time>
      </trkpt>
      <trkpt lat="59.9758705" lon="17.7414274">
        <ele>33.3029</ele>
        <time>2013-03-06T18:36:25Z</time>
      </trkpt>
      <trkpt lat="59.9758646" lon="17.7414523">
        <ele>33.3029</ele>
        <time>2013-03-06T18:36:26Z</time>
      </trkpt>
      <trkpt lat="59.9758584" lon="17.7414782">
        <ele>33.3029</ele>
        <time>2013-03-06T18:36:27Z</time>
      </trkpt>
      <trkpt lat="59.9758529" lon="17.7414999">
        <ele>33.3029</ele>
        <time>2013-03-06T18:36:28Z</time>
      </trkpt>
      <trkpt lat="59.9758466" lon="17.7415211">
        <ele>33.3029</ele>
        <time>2013-03-06T18:36:29Z</time>
      </trkpt>
      <trkpt lat="59.9758394" lon="17.7415434">
        <ele>33.3029</ele>
        <time>2013-03-06T18:36:30Z</time>
      </trkpt>
      <trkpt lat="59.9758335" lon="17.7415651">
        <ele>33.3029</ele>
        <time>2013-03-06T18:36:31Z</time>
      </trkpt>
      <trkpt lat="59.975828" lon="17.7415886">
        <ele>33.3029</ele>
        <time>2013-03-06T18:36:32Z</time>
      </trkpt>
      <trkpt lat="59.9758223" lon="17.7416131">
        <ele>33.3029</ele>
        <time>2013-03-06T18:36:33Z</time>
      </trkpt>
      <trkpt lat="59.9758167" lon="17.7416362">
        <ele>33.3029</ele>
        <time>2013-03-06T18:36:34Z</time>
      </trkpt>
      <trkpt lat="59.975811" lon="17.7416601">
        <ele>33.3029</ele>
        <time>2013-03-06T18:36:35Z</time>
      </trkpt>
      <trkpt lat="59.9758051" lon="17.7416847">
        <ele>33.3029</ele>
        <time>2013-03-06T18:36:36Z</time>
      </trkpt>
      <trkpt lat="59.9757991" lon="17.7417087">
        <ele>33.3029</ele>
        <time>2013-03-06T18:36:37Z</time>
      </trkpt>
      <trkpt lat="59.9757933" lon="17.7417338">
        <ele>33.3029</ele>
        <time>2013-03-06T18:36:38Z</time>
      </trkpt>
      <trkpt lat="59.975789" lon="17.7417584">
        <ele>33.3029</ele>
        <time>2013-03-06T18:36:39Z</time>
      </trkpt>
      <trkpt lat="59.9757845" lon="17.7417848">
        <ele>33.3029</ele>
        <time>2013-03-06T18:36:40Z</time>
      </trkpt>
      <trkpt lat="59.9757802" lon="17.7418102">
        <ele>33.3029</ele>
        <time>2013-03-06T18:36:41Z</time>
      </trkpt>
      <trkpt lat="59.9757752" lon="17.7418351">
        <ele>33.3029</ele>
        <time>2013-03-06T18:36:42Z</time>
      </trkpt>
      <trkpt lat="59.9757698" lon="17.7418604">
        <ele>33.3029</ele>
        <time>2013-03-06T18:36:43Z</time>
      </trkpt>
      <trkpt lat="59.9757634" lon="17.7418874">
        <ele>33.3029</ele>
        <time>2013-03-06T18:36:44Z</time>
      </trkpt>
      <trkpt lat="59.975757" lon="17.7419133">
        <ele>33.3029</ele>
        <time>2013-03-06T18:36:45Z</time>
      </trkpt>
      <trkpt lat="59.9757497" lon="17.7419381">
        <ele>33.7834</ele>
        <time>2013-03-06T18:36:46Z</time>
      </trkpt>
      <trkpt lat="59.9757431" lon="17.7419625">
        <ele>33.7834</ele>
        <time>2013-03-06T18:36:47Z</time>
      </trkpt>
      <trkpt lat="59.9757368" lon="17.7419841">
        <ele>33.7834</ele>
        <time>2013-03-06T18:36:48Z</time>
      </trkpt>
      <trkpt lat="59.9757294" lon="17.7420082">
        <ele>33.7834</ele>
        <time>2013-03-06T18:36:49Z</time>
      </trkpt>
      <trkpt lat="59.9757234" lon="17.7420315">
        <ele>34.2642</ele>
        <time>2013-03-06T18:36:50Z</time>
      </trkpt>
      <trkpt lat="59.9757164" lon="17.7420571">
        <ele>34.2642</ele>
        <time>2013-03-06T18:36:51Z</time>
      </trkpt>
      <trkpt lat="59.9757099" lon="17.7420806">
        <ele>33.7834</ele>
        <time>2013-03-06T18:36:52Z</time>
      </trkpt>
      <trkpt lat="59.9757038" lon="17.7421042">
        <ele>33.7834</ele>
        <time>2013-03-06T18:36:53Z</time>
      </trkpt>
      <trkpt lat="59.9756973" lon="17.7421296">
        <ele>33.7834</ele>
        <time>2013-03-06T18:36:54Z</time>
      </trkpt>
      <trkpt lat="59.9756908" lon="17.7421531">
        <ele>33.7834</ele>
        <time>2013-03-06T18:36:55Z</time>
      </trkpt>
      <trkpt lat="59.9756838" lon="17.7421786">
        <ele>33.7834</ele>
        <time>2013-03-06T18:36:56Z</time>
      </trkpt>
      <trkpt lat="59.9756763" lon="17.7422054">
        <ele>33.7834</ele>
        <time>2013-03-06T18:36:57Z</time>
      </trkpt>
      <trkpt lat="59.9756694" lon="17.7422313">
        <ele>33.7834</ele>
        <time>2013-03-06T18:36:58Z</time>
      </trkpt>
      <trkpt lat="59.9756622" lon="17.7422566">
        <ele>33.7834</ele>
        <time>2013-03-06T18:36:59Z</time>
      </trkpt>
      <trkpt lat="59.9756555" lon="17.7422796">
        <ele>33.7834</ele>
        <time>2013-03-06T18:37:00Z</time>
      </trkpt>
      <trkpt lat="59.9756488" lon="17.7423043">
        <ele>33.7834</ele>
        <time>2013-03-06T18:37:01Z</time>
      </trkpt>
      <trkpt lat="59.9756421" lon="17.7423297">
        <ele>33.7834</ele>
        <time>2013-03-06T18:37:02Z</time>
      </trkpt>
      <trkpt lat="59.9756349" lon="17.7423545">
        <ele>34.2642</ele>
        <time>2013-03-06T18:37:03Z</time>
      </trkpt>
      <trkpt lat="59.9756269" lon="17.7423784">
        <ele>34.2642</ele>
        <time>2013-03-06T18:37:04Z</time>
      </trkpt>
      <trkpt lat="59.9756193" lon="17.7424029">
        <ele>34.2642</ele>
        <time>2013-03-06T18:37:05Z</time>
      </trkpt>
      <trkpt lat="59.9756131" lon="17.7424281">
        <ele>34.2642</ele>
        <time>2013-03-06T18:37:06Z</time>
      </trkpt>
      <trkpt lat="59.9756068" lon="17.7424528">
        <ele>34.2642</ele>
        <time>2013-03-06T18:37:07Z</time>
      </trkpt>
      <trkpt lat="59.9756006" lon="17.7424777">
        <ele>34.2642</ele>
        <time>2013-03-06T18:37:08Z</time>
      </trkpt>
      <trkpt lat="59.9755953" lon="17.7424991">
        <ele>34.2642</ele>
        <time>2013-03-06T18:37:09Z</time>
      </trkpt>
      <trkpt lat="59.9755892" lon="17.7425233">
        <ele>34.2642</ele>
        <time>2013-03-06T18:37:10Z</time>
      </trkpt>
      <trkpt lat="59.9755825" lon="17.7425488">
        <ele>34.2642</ele>
        <time>2013-03-06T18:37:11Z</time>
      </trkpt>
      <trkpt lat="59.9755756" lon="17.7425735">
        <ele>34.7449</ele>
        <time>2013-03-06T18:37:12Z</time>
      </trkpt>
      <trkpt lat="59.97557" lon="17.7425924">
        <ele>34.2642</ele>
        <time>2013-03-06T18:37:13Z</time>
      </trkpt>
      <trkpt lat="59.9755638" lon="17.7426127">
        <ele>34.2642</ele>
        <time>2013-03-06T18:37:14Z</time>
      </trkpt>
      <trkpt lat="59.9755576" lon="17.7426339">
        <ele>34.7449</ele>
        <time>2013-03-06T18:37:15Z</time>
      </trkpt>
      <trkpt lat="59.9755527" lon="17.7426546">
        <ele>34.2642</ele>
        <time>2013-03-06T18:37:16Z</time>
      </trkpt>
      <trkpt lat="59.9755477" lon="17.7426763">
        <ele>34.2642</ele>
        <time>2013-03-06T18:37:17Z</time>
      </trkpt>
      <trkpt lat="59.9755421" lon="17.7427004">
        <ele>34.2642</ele>
        <time>2013-03-06T18:37:18Z</time>
      </trkpt>
      <trkpt lat="59.9755365" lon="17.742724">
        <ele>33.7834</ele>
        <time>2013-03-06T18:37:19Z</time>
      </trkpt>
      <trkpt lat="59.9755307" lon="17.7427486">
        <ele>33.7834</ele>
        <time>2013-03-06T18:37:20Z</time>
      </trkpt>
      <trkpt lat="59.9755254" lon="17.7427728">
        <ele>33.7834</ele>
        <time>2013-03-06T18:37:21Z</time>
      </trkpt>
      <trkpt lat="59.9755206" lon="17.7427961">
        <ele>33.7834</ele>
        <time>2013-03-06T18:37:22Z</time>
      </trkpt>
      <trkpt lat="59.975515" lon="17.7428206">
        <ele>33.7834</ele>
        <time>2013-03-06T18:37:23Z</time>
      </trkpt>
      <trkpt lat="59.9755089" lon="17.7428462">
        <ele>33.7834</ele>
        <time>2013-03-06T18:37:24Z</time>
      </trkpt>
      <trkpt lat="59.9755023" lon="17.7428709">
        <ele>33.7834</ele>
        <time>2013-03-06T18:37:25Z</time>
      </trkpt>
      <trkpt lat="59.9754955" lon="17.7428949">
        <ele>33.7834</ele>
        <time>2013-03-06T18:37:26Z</time>
      </trkpt>
      <trkpt lat="59.9754877" lon="17.7429186">
        <ele>33.7834</ele>
        <time>2013-03-06T18:37:27Z</time>
      </trkpt>
      <trkpt lat="59.9754793" lon="17.7429415">
        <ele>33.7834</ele>
        <time>2013-03-06T18:37:28Z</time>
      </trkpt>
      <trkpt lat="59.9754717" lon="17.7429613">
        <ele>33.7834</ele>
        <time>2013-03-06T18:37:29Z</time>
      </trkpt>
      <trkpt lat="59.9754645" lon="17.7429833">
        <ele>33.3029</ele>
        <time>2013-03-06T18:37:30Z</time>
      </trkpt>
      <trkpt lat="59.9754577" lon="17.7430054">
        <ele>33.3029</ele>
        <time>2013-03-06T18:37:31Z</time>
      </trkpt>
      <trkpt lat="59.9754507" lon="17.7430281">
        <ele>33.3029</ele>
        <time>2013-03-06T18:37:32Z</time>
      </trkpt>
      <trkpt lat="59.975444" lon="17.7430498">
        <ele>33.3029</ele>
        <time>2013-03-06T18:37:33Z</time>
      </trkpt>
      <trkpt lat="59.9754375" lon="17.7430742">
        <ele>33.3029</ele>
        <time>2013-03-06T18:37:34Z</time>
      </trkpt>
      <trkpt lat="59.9754306" lon="17.7431">
        <ele>33.7834</ele>
        <time>2013-03-06T18:37:35Z</time>
      </trkpt>
      <trkpt lat="59.975424" lon="17.7431249">
        <ele>33.7834</ele>
        <time>2013-03-06T18:37:36Z</time>
      </trkpt>
      <trkpt lat="59.9754177" lon="17.7431518">
        <ele>33.7834</ele>
        <time>2013-03-06T18:37:37Z</time>
      </trkpt>
      <trkpt lat="59.9754109" lon="17.7431799">
        <ele>33.7834</ele>
        <time>2013-03-06T18:37:38Z</time>
      </trkpt>
      <trkpt lat="59.9754043" lon="17.7432052">
        <ele>33.7834</ele>
        <time>2013-03-06T18:37:39Z</time>
      </trkpt>
      <trkpt lat="59.9753982" lon="17.7432294">
        <ele>33.7834</ele>
        <time>2013-03-06T18:37:40Z</time>
      </trkpt>
      <trkpt lat="59.9753907" lon="17.7432554">
        <ele>33.7834</ele>
        <time>2013-03-06T18:37:41Z</time>
      </trkpt>
      <trkpt lat="59.9753845" lon="17.7432811">
        <ele>33.7834</ele>
        <time>2013-03-06T18:37:42Z</time>
      </trkpt>
      <trkpt lat="59.9753798" lon="17.7433044">
        <ele>33.7834</ele>
        <time>2013-03-06T18:37:43Z</time>
      </trkpt>
      <trkpt lat="59.9753756" lon="17.7433276">
        <ele>33.3029</ele>
        <time>2013-03-06T18:37:44Z</time>
      </trkpt>
      <trkpt lat="59.9753714" lon="17.7433532">
        <ele>33.3029</ele>
        <time>2013-03-06T18:37:45Z</time>
      </trkpt>
      <trkpt lat="59.975367" lon="17.7433777">
        <ele>33.3029</ele>
        <time>2013-03-06T18:37:46Z</time>
      </trkpt>
      <trkpt lat="59.9753633" lon="17.7434031">
        <ele>32.8223</ele>
        <time>2013-03-06T18:37:47Z</time>
      </trkpt>
      <trkpt lat="59.9753591" lon="17.7434334">
        <ele>32.8223</ele>
        <time>2013-03-06T18:37:48Z</time>
      </trkpt>
      <trkpt lat="59.9753531" lon="17.7434626">
        <ele>32.8223</ele>
        <time>2013-03-06T18:37:49Z</time>
      </trkpt>
      <trkpt lat="59.9753487" lon="17.7434906">
        <ele>32.8223</ele>
        <time>2013-03-06T18:37:50Z</time>
      </trkpt>
      <trkpt lat="59.9753472" lon="17.7435222">
        <ele>32.8223</ele>
        <time>2013-03-06T18:37:51Z</time>
      </trkpt>
      <trkpt lat="59.975344" lon="17.7435502">
        <ele>32.8223</ele>
        <time>2013-03-06T18:37:52Z</time>
      </trkpt>
      <trkpt lat="59.9753407" lon="17.7435766">
        <ele>32.3416</ele>
        <time>2013-03-06T18:37:53Z</time>
      </trkpt>
      <trkpt lat="59.9753355" lon="17.743605">
        <ele>32.3416</ele>
        <time>2013-03-06T18:37:54Z</time>
      </trkpt>
      <trkpt lat="59.9753302" lon="17.743633">
        <ele>32.3416</ele>
        <time>2013-03-06T18:37:55Z</time>
      </trkpt>
      <trkpt lat="59.9753261" lon="17.7436635">
        <ele>32.3416</ele>
        <time>2013-03-06T18:37:56Z</time>
      </trkpt>
      <trkpt lat="59.9753218" lon="17.7436922">
        <ele>32.8223</ele>
        <time>2013-03-06T18:37:57Z</time>
      </trkpt>
      <trkpt lat="59.9753161" lon="17.7437199">
        <ele>32.3416</ele>
        <time>2013-03-06T18:37:58Z</time>
      </trkpt>
      <trkpt lat="59.9753117" lon="17.7437455">
        <ele>32.3416</ele>
        <time>2013-03-06T18:37:59Z</time>
      </trkpt>
      <trkpt lat="59.975308" lon="17.7437727">
        <ele>32.3416</ele>
        <time>2013-03-06T18:38:00Z</time>
      </trkpt>
      <trkpt lat="59.9753051" lon="17.7438009">
        <ele>32.3416</ele>
        <time>2013-03-06T18:38:01Z</time>
      </trkpt>
      <trkpt lat="59.975302" lon="17.7438295">
        <ele>32.3416</ele>
        <time>2013-03-06T18:38:02Z</time>
      </trkpt>
      <trkpt lat="59.9752976" lon="17.7438585">
        <ele>32.3416</ele>
        <time>2013-03-06T18:38:03Z</time>
      </trkpt>
      <trkpt lat="59.9752932" lon="17.7438864">
        <ele>32.3416</ele>
        <time>2013-03-06T18:38:04Z</time>
      </trkpt>
      <trkpt lat="59.9752872" lon="17.7439131">
        <ele>32.3416</ele>
        <time>2013-03-06T18:38:05Z</time>
      </trkpt>
      <trkpt lat="59.9752825" lon="17.7439408">
        <ele>32.3416</ele>
        <time>2013-03-06T18:38:06Z</time>
      </trkpt>
      <trkpt lat="59.9752789" lon="17.7439722">
        <ele>32.3416</ele>
        <time>2013-03-06T18:38:07Z</time>
      </trkpt>
      <trkpt lat="59.9752748" lon="17.7440003">
        <ele>32.3416</ele>
        <time>2013-03-06T18:38:08Z</time>
      </trkpt>
      <trkpt lat="59.9752705" lon="17.7440266">
        <ele>31.8607</ele>
        <time>2013-03-06T18:38:09Z</time>
      </trkpt>
      <trkpt lat="59.9752658" lon="17.7440519">
        <ele>31.8607</ele>
        <time>2013-03-06T18:38:10Z</time>
      </trkpt>
      <trkpt lat="59.9752595" lon="17.7440781">
        <ele>31.8607</ele>
        <time>2013-03-06T18:38:11Z</time>
      </trkpt>
      <trkpt lat="59.9752546" lon="17.7441029">
        <ele>31.8607</ele>
        <time>2013-03-06T18:38:12Z</time>
      </trkpt>
      <trkpt lat="59.9752515" lon="17.7441303">
        <ele>31.8607</ele>
        <time>2013-03-06T18:38:13Z</time>
      </trkpt>
      <trkpt lat="59.9752478" lon="17.74416">
        <ele>32.3416</ele>
        <time>2013-03-06T18:38:14Z</time>
      </trkpt>
      <trkpt lat="59.975242" lon="17.7441883">
        <ele>32.3416</ele>
        <time>2013-03-06T18:38:15Z</time>
      </trkpt>
      <trkpt lat="59.9752369" lon="17.7442158">
        <ele>32.8223</ele>
        <time>2013-03-06T18:38:16Z</time>
      </trkpt>
      <trkpt lat="59.9752327" lon="17.7442458">
        <ele>33.3029</ele>
        <time>2013-03-06T18:38:17Z</time>
      </trkpt>
      <trkpt lat="59.9752272" lon="17.7442759">
        <ele>33.3029</ele>
        <time>2013-03-06T18:38:18Z</time>
      </trkpt>
      <trkpt lat="59.9752203" lon="17.744304">
        <ele>33.7834</ele>
        <time>2013-03-06T18:38:19Z</time>
      </trkpt>
      <trkpt lat="59.9752132" lon="17.7443292">
        <ele>33.7834</ele>
        <time>2013-03-06T18:38:20Z</time>
      </trkpt>
      <trkpt lat="59.9752075" lon="17.7443526">
        <ele>33.7834</ele>
        <time>2013-03-06T18:38:21Z</time>
      </trkpt>
      <trkpt lat="59.9752008" lon="17.7443775">
        <ele>33.7834</ele>
        <time>2013-03-06T18:38:22Z</time>
      </trkpt>
      <trkpt lat="59.9751949" lon="17.7444026">
        <ele>34.2642</ele>
        <time>2013-03-06T18:38:23Z</time>
      </trkpt>
      <trkpt lat="59.9751891" lon="17.7444304">
        <ele>34.2642</ele>
        <time>2013-03-06T18:38:24Z</time>
      </trkpt>
      <trkpt lat="59.975183" lon="17.7444577">
        <ele>34.7449</ele>
        <time>2013-03-06T18:38:25Z</time>
      </trkpt>
      <trkpt lat="59.9751773" lon="17.7444831">
        <ele>34.7449</ele>
        <time>2013-03-06T18:38:26Z</time>
      </trkpt>
      <trkpt lat="59.9751712" lon="17.7445089">
        <ele>35.2255</ele>
        <time>2013-03-06T18:38:27Z</time>
      </trkpt>
      <trkpt lat="59.9751646" lon="17.744535">
        <ele>35.2255</ele>
        <time>2013-03-06T18:38:28Z</time>
      </trkpt>
      <trkpt lat="59.9751581" lon="17.7445614">
        <ele>35.2255</ele>
        <time>2013-03-06T18:38:29Z</time>
      </trkpt>
      <trkpt lat="59.9751516" lon="17.7445856">
        <ele>35.2255</ele>
        <time>2013-03-06T18:38:30Z</time>
      </trkpt>
      <trkpt lat="59.9751442" lon="17.7446096">
        <ele>35.2255</ele>
        <time>2013-03-06T18:38:31Z</time>
      </trkpt>
      <trkpt lat="59.9751363" lon="17.7446335">
        <ele>35.7061</ele>
        <time>2013-03-06T18:38:32Z</time>
      </trkpt>
      <trkpt lat="59.9751282" lon="17.7446598">
        <ele>35.7061</ele>
        <time>2013-03-06T18:38:33Z</time>
      </trkpt>
      <trkpt lat="59.9751209" lon="17.7446847">
        <ele>35.7061</ele>
        <time>2013-03-06T18:38:34Z</time>
      </trkpt>
      <trkpt lat="59.9751142" lon="17.7447096">
        <ele>35.7061</ele>
        <time>2013-03-06T18:38:35Z</time>
      </trkpt>
      <trkpt lat="59.9751081" lon="17.7447369">
        <ele>36.1868</ele>
        <time>2013-03-06T18:38:36Z</time>
      </trkpt>
      <trkpt lat="59.9751012" lon="17.7447618">
        <ele>36.1868</ele>
        <time>2013-03-06T18:38:37Z</time>
      </trkpt>
      <trkpt lat="59.9750939" lon="17.7447847">
        <ele>36.1868</ele>
        <time>2013-03-06T18:38:38Z</time>
      </trkpt>
      <trkpt lat="59.9750866" lon="17.7448073">
        <ele>36.1868</ele>
        <time>2013-03-06T18:38:39Z</time>
      </trkpt>
      <trkpt lat="59.9750794" lon="17.7448313">
        <ele>36.1868</ele>
        <time>2013-03-06T18:38:40Z</time>
      </trkpt>
      <trkpt lat="59.975072" lon="17.7448575">
        <ele>36.1868</ele>
        <time>2013-03-06T18:38:41Z</time>
      </trkpt>
      <trkpt lat="59.9750646" lon="17.7448821">
        <ele>36.1868</ele>
        <time>2013-03-06T18:38:42Z</time>
      </trkpt>
      <trkpt lat="59.9750572" lon="17.7449064">
        <ele>36.1868</ele>
        <time>2013-03-06T18:38:43Z</time>
      </trkpt>
      <trkpt lat="59.9750493" lon="17.7449317">
        <ele>36.1868</ele>
        <time>2013-03-06T18:38:44Z</time>
      </trkpt>
      <trkpt lat="59.975041" lon="17.7449556">
        <ele>36.1868</ele>
        <time>2013-03-06T18:38:45Z</time>
      </trkpt>
      <trkpt lat="59.9750325" lon="17.7449792">
        <ele>36.1868</ele>
        <time>2013-03-06T18:38:46Z</time>
      </trkpt>
      <trkpt lat="59.9750241" lon="17.7450042">
        <ele>36.6675</ele>
        <time>2013-03-06T18:38:47Z</time>
      </trkpt>
      <trkpt lat="59.9750164" lon="17.7450268">
        <ele>36.6675</ele>
        <time>2013-03-06T18:38:48Z</time>
      </trkpt>
      <trkpt lat="59.9750076" lon="17.745052">
        <ele>36.6675</ele>
        <time>2013-03-06T18:38:49Z</time>
      </trkpt>
      <trkpt lat="59.974998" lon="17.7450762">
        <ele>36.6675</ele>
        <time>2013-03-06T18:38:50Z</time>
      </trkpt>
      <trkpt lat="59.9749869" lon="17.7451019">
        <ele>36.6675</ele>
        <time>2013-03-06T18:38:51Z</time>
      </trkpt>
      <trkpt lat="59.974977" lon="17.7451254">
        <ele>37.1481</ele>
        <time>2013-03-06T18:38:52Z</time>
      </trkpt>
      <trkpt lat="59.9749681" lon="17.7451507">
        <ele>37.1481</ele>
        <time>2013-03-06T18:38:53Z</time>
      </trkpt>
      <trkpt lat="59.9749599" lon="17.7451782">
        <ele>37.1481</ele>
        <time>2013-03-06T18:38:54Z</time>
      </trkpt>
      <trkpt lat="59.9749516" lon="17.745205">
        <ele>37.6287</ele>
        <time>2013-03-06T18:38:55Z</time>
      </trkpt>
      <trkpt lat="59.9749428" lon="17.7452274">
        <ele>37.1481</ele>
        <time>2013-03-06T18:38:56Z</time>
      </trkpt>
      <trkpt lat="59.9749344" lon="17.7452506">
        <ele>37.6287</ele>
        <time>2013-03-06T18:38:57Z</time>
      </trkpt>
      <trkpt lat="59.9749267" lon="17.7452753">
        <ele>37.6287</ele>
        <time>2013-03-06T18:38:58Z</time>
      </trkpt>
      <trkpt lat="59.9749199" lon="17.7452975">
        <ele>37.6287</ele>
        <time>2013-03-06T18:38:59Z</time>
      </trkpt>
      <trkpt lat="59.9749115" lon="17.7453218">
        <ele>37.6287</ele>
        <time>2013-03-06T18:39:00Z</time>
      </trkpt>
      <trkpt lat="59.9749026" lon="17.7453459">
        <ele>37.6287</ele>
        <time>2013-03-06T18:39:01Z</time>
      </trkpt>
      <trkpt lat="59.9748941" lon="17.745369">
        <ele>38.1094</ele>
        <time>2013-03-06T18:39:02Z</time>
      </trkpt>
      <trkpt lat="59.9748851" lon="17.7453938">
        <ele>38.1094</ele>
        <time>2013-03-06T18:39:03Z</time>
      </trkpt>
      <trkpt lat="59.9748754" lon="17.7454164">
        <ele>38.1094</ele>
        <time>2013-03-06T18:39:04Z</time>
      </trkpt>
      <trkpt lat="59.9748654" lon="17.7454403">
        <ele>38.1094</ele>
        <time>2013-03-06T18:39:05Z</time>
      </trkpt>
      <trkpt lat="59.9748568" lon="17.7454616">
        <ele>38.1094</ele>
        <time>2013-03-06T18:39:06Z</time>
      </trkpt>
      <trkpt lat="59.9748506" lon="17.7454843">
        <ele>38.1094</ele>
        <time>2013-03-06T18:39:07Z</time>
      </trkpt>
      <trkpt lat="59.9748464" lon="17.7455088">
        <ele>38.1094</ele>
        <time>2013-03-06T18:39:08Z</time>
      </trkpt>
      <trkpt lat="59.9748402" lon="17.7455337">
        <ele>38.5901</ele>
        <time>2013-03-06T18:39:09Z</time>
      </trkpt>
      <trkpt lat="59.9748322" lon="17.7455539">
        <ele>39.0707</ele>
        <time>2013-03-06T18:39:10Z</time>
      </trkpt>
      <trkpt lat="59.9748235" lon="17.7455729">
        <ele>38.5901</ele>
        <time>2013-03-06T18:39:11Z</time>
      </trkpt>
      <trkpt lat="59.9748137" lon="17.7455928">
        <ele>39.0707</ele>
        <time>2013-03-06T18:39:12Z</time>
      </trkpt>
      <trkpt lat="59.9748048" lon="17.7456109">
        <ele>38.5901</ele>
        <time>2013-03-06T18:39:13Z</time>
      </trkpt>
      <trkpt lat="59.974797" lon="17.7456336">
        <ele>39.0707</ele>
        <time>2013-03-06T18:39:14Z</time>
      </trkpt>
      <trkpt lat="59.97479" lon="17.7456578">
        <ele>39.0707</ele>
        <time>2013-03-06T18:39:15Z</time>
      </trkpt>
      <trkpt lat="59.9747811" lon="17.7456823">
        <ele>39.5513</ele>
        <time>2013-03-06T18:39:16Z</time>
      </trkpt>
      <trkpt lat="59.9747731" lon="17.7457049">
        <ele>39.5513</ele>
        <time>2013-03-06T18:39:17Z</time>
      </trkpt>
      <trkpt lat="59.9747652" lon="17.7457295">
        <ele>39.5513</ele>
        <time>2013-03-06T18:39:18Z</time>
      </trkpt>
      <trkpt lat="59.9747567" lon="17.74575">
        <ele>39.5513</ele>
        <time>2013-03-06T18:39:19Z</time>
      </trkpt>
      <trkpt lat="59.9747478" lon="17.7457714">
        <ele>39.5513</ele>
        <time>2013-03-06T18:39:20Z</time>
      </trkpt>
      <trkpt lat="59.9747381" lon="17.7457953">
        <ele>40.0321</ele>
        <time>2013-03-06T18:39:21Z</time>
      </trkpt>
      <trkpt lat="59.974727" lon="17.7458201">
        <ele>40.5128</ele>
        <time>2013-03-06T18:39:22Z</time>
      </trkpt>
      <trkpt lat="59.9747149" lon="17.745845">
        <ele>40.9934</ele>
        <time>2013-03-06T18:39:23Z</time>
      </trkpt>
      <trkpt lat="59.9747038" lon="17.7458667">
        <ele>40.9934</ele>
        <time>2013-03-06T18:39:24Z</time>
      </trkpt>
      <trkpt lat="59.9746931" lon="17.7458854">
        <ele>40.9934</ele>
        <time>2013-03-06T18:39:25Z</time>
      </trkpt>
      <trkpt lat="59.9746817" lon="17.7459066">
        <ele>40.9934</ele>
        <time>2013-03-06T18:39:26Z</time>
      </trkpt>
      <trkpt lat="59.9746712" lon="17.7459211">
        <ele>40.9934</ele>
        <time>2013-03-06T18:39:27Z</time>
      </trkpt>
      <trkpt lat="59.9746598" lon="17.7459373">
        <ele>41.474</ele>
        <time>2013-03-06T18:39:28Z</time>
      </trkpt>
      <trkpt lat="59.9746485" lon="17.7459572">
        <ele>40.9934</ele>
        <time>2013-03-06T18:39:29Z</time>
      </trkpt>
      <trkpt lat="59.9746374" lon="17.7459779">
        <ele>41.474</ele>
        <time>2013-03-06T18:39:30Z</time>
      </trkpt>
      <trkpt lat="59.9746266" lon="17.7459932">
        <ele>40.9934</ele>
        <time>2013-03-06T18:39:31Z</time>
      </trkpt>
      <trkpt lat="59.9746154" lon="17.7460127">
        <ele>41.474</ele>
        <time>2013-03-06T18:39:32Z</time>
      </trkpt>
      <trkpt lat="59.9746053" lon="17.7460299">
        <ele>40.9934</ele>
        <time>2013-03-06T18:39:33Z</time>
      </trkpt>
      <trkpt lat="59.974595" lon="17.746047">
        <ele>40.9934</ele>
        <time>2013-03-06T18:39:34Z</time>
      </trkpt>
      <trkpt lat="59.9745838" lon="17.7460663">
        <ele>40.9934</ele>
        <time>2013-03-06T18:39:35Z</time>
      </trkpt>
      <trkpt lat="59.9745728" lon="17.7460852">
        <ele>40.9934</ele>
        <time>2013-03-06T18:39:36Z</time>
      </trkpt>
      <trkpt lat="59.9745616" lon="17.7461035">
        <ele>40.9934</ele>
        <time>2013-03-06T18:39:37Z</time>
      </trkpt>
      <trkpt lat="59.974549" lon="17.7461233">
        <ele>40.9934</ele>
        <time>2013-03-06T18:39:38Z</time>
      </trkpt>
      <trkpt lat="59.9745387" lon="17.7461457">
        <ele>40.9934</ele>
        <time>2013-03-06T18:39:39Z</time>
      </trkpt>
      <trkpt lat="59.9745279" lon="17.7461682">
        <ele>40.5128</ele>
        <time>2013-03-06T18:39:40Z</time>
      </trkpt>
      <trkpt lat="59.9745159" lon="17.7461865">
        <ele>40.5128</ele>
        <time>2013-03-06T18:39:41Z</time>
      </trkpt>
      <trkpt lat="59.974504" lon="17.7462014">
        <ele>40.0321</ele>
        <time>2013-03-06T18:39:42Z</time>
      </trkpt>
      <trkpt lat="59.9744916" lon="17.7462175">
        <ele>40.0321</ele>
        <time>2013-03-06T18:39:43Z</time>
      </trkpt>
      <trkpt lat="59.9744796" lon="17.7462343">
        <ele>39.5513</ele>
        <time>2013-03-06T18:39:44Z</time>
      </trkpt>
      <trkpt lat="59.9744666" lon="17.7462493">
        <ele>39.0707</ele>
        <time>2013-03-06T18:39:45Z</time>
      </trkpt>
      <trkpt lat="59.9744543" lon="17.7462644">
        <ele>39.0707</ele>
        <time>2013-03-06T18:39:46Z</time>
      </trkpt>
      <trkpt lat="59.9744413" lon="17.7462815">
        <ele>39.0707</ele>
        <time>2013-03-06T18:39:47Z</time>
      </trkpt>
      <trkpt lat="59.9744289" lon="17.7463009">
        <ele>39.0707</ele>
        <time>2013-03-06T18:39:48Z</time>
      </trkpt>
      <trkpt lat="59.9744167" lon="17.7463206">
        <ele>39.5513</ele>
        <time>2013-03-06T18:39:49Z</time>
      </trkpt>
      <trkpt lat="59.9744045" lon="17.7463434">
        <ele>39.5513</ele>
        <time>2013-03-06T18:39:50Z</time>
      </trkpt>
      <trkpt lat="59.9743921" lon="17.7463635">
        <ele>39.5513</ele>
        <time>2013-03-06T18:39:51Z</time>
      </trkpt>
      <trkpt lat="59.9743782" lon="17.7463835">
        <ele>40.0321</ele>
        <time>2013-03-06T18:39:52Z</time>
      </trkpt>
      <trkpt lat="59.9743641" lon="17.7464042">
        <ele>40.0321</ele>
        <time>2013-03-06T18:39:53Z</time>
      </trkpt>
      <trkpt lat="59.9743504" lon="17.746424">
        <ele>40.0321</ele>
        <time>2013-03-06T18:39:54Z</time>
      </trkpt>
      <trkpt lat="59.974339" lon="17.7464436">
        <ele>40.0321</ele>
        <time>2013-03-06T18:39:55Z</time>
      </trkpt>
      <trkpt lat="59.974328" lon="17.7464619">
        <ele>40.0321</ele>
        <time>2013-03-06T18:39:56Z</time>
      </trkpt>
      <trkpt lat="59.9743149" lon="17.746483">
        <ele>40.5128</ele>
        <time>2013-03-06T18:39:57Z</time>
      </trkpt>
      <trkpt lat="59.9743038" lon="17.7465083">
        <ele>40.5128</ele>
        <time>2013-03-06T18:39:58Z</time>
      </trkpt>
      <trkpt lat="59.9742952" lon="17.7465356">
        <ele>40.9934</ele>
        <time>2013-03-06T18:39:59Z</time>
      </trkpt>
      <trkpt lat="59.974286" lon="17.7465574">
        <ele>40.9934</ele>
        <time>2013-03-06T18:40:00Z</time>
      </trkpt>
      <trkpt lat="59.9742751" lon="17.7465759">
        <ele>41.474</ele>
        <time>2013-03-06T18:40:01Z</time>
      </trkpt>
      <trkpt lat="59.9742642" lon="17.7465946">
        <ele>41.474</ele>
        <time>2013-03-06T18:40:02Z</time>
      </trkpt>
      <trkpt lat="59.9742532" lon="17.746612">
        <ele>41.474</ele>
        <time>2013-03-06T18:40:03Z</time>
      </trkpt>
      <trkpt lat="59.9742424" lon="17.7466298">
        <ele>41.474</ele>
        <time>2013-03-06T18:40:04Z</time>
      </trkpt>
      <trkpt lat="59.974231" lon="17.7466438">
        <ele>41.9547</ele>
        <time>2013-03-06T18:40:05Z</time>
      </trkpt>
      <trkpt lat="59.9742192" lon="17.7466563">
        <ele>41.474</ele>
        <time>2013-03-06T18:40:06Z</time>
      </trkpt>
      <trkpt lat="59.9742075" lon="17.7466712">
        <ele>41.474</ele>
        <time>2013-03-06T18:40:07Z</time>
      </trkpt>
      <trkpt lat="59.9741962" lon="17.7466858">
        <ele>41.474</ele>
        <time>2013-03-06T18:40:08Z</time>
      </trkpt>
      <trkpt lat="59.9741827" lon="17.7466954">
        <ele>41.474</ele>
        <time>2013-03-06T18:40:09Z</time>
      </trkpt>
      <trkpt lat="59.9741683" lon="17.7467014">
        <ele>41.474</ele>
        <time>2013-03-06T18:40:10Z</time>
      </trkpt>
      <trkpt lat="59.9741543" lon="17.7467094">
        <ele>41.474</ele>
        <time>2013-03-06T18:40:11Z</time>
      </trkpt>
      <trkpt lat="59.9741406" lon="17.7467246">
        <ele>41.474</ele>
        <time>2013-03-06T18:40:12Z</time>
      </trkpt>
      <trkpt lat="59.9741287" lon="17.7467391">
        <ele>41.474</ele>
        <time>2013-03-06T18:40:13Z</time>
      </trkpt>
      <trkpt lat="59.9741181" lon="17.746755">
        <ele>41.9547</ele>
        <time>2013-03-06T18:40:14Z</time>
      </trkpt>
      <trkpt lat="59.9741055" lon="17.7467748">
        <ele>41.9547</ele>
        <time>2013-03-06T18:40:15Z</time>
      </trkpt>
      <trkpt lat="59.9740902" lon="17.7467857">
        <ele>41.9547</ele>
        <time>2013-03-06T18:40:16Z</time>
      </trkpt>
      <trkpt lat="59.9740743" lon="17.7467962">
        <ele>42.4354</ele>
        <time>2013-03-06T18:40:17Z</time>
      </trkpt>
      <trkpt lat="59.974059" lon="17.746812">
        <ele>42.4354</ele>
        <time>2013-03-06T18:40:18Z</time>
      </trkpt>
      <trkpt lat="59.9740446" lon="17.7468319">
        <ele>42.4354</ele>
        <time>2013-03-06T18:40:19Z</time>
      </trkpt>
      <trkpt lat="59.974031" lon="17.7468547">
        <ele>42.4354</ele>
        <time>2013-03-06T18:40:20Z</time>
      </trkpt>
      <trkpt lat="59.9740165" lon="17.7468782">
        <ele>42.4354</ele>
        <time>2013-03-06T18:40:21Z</time>
      </trkpt>
      <trkpt lat="59.9740031" lon="17.7468975">
        <ele>42.4354</ele>
        <time>2013-03-06T18:40:22Z</time>
      </trkpt>
      <trkpt lat="59.9739902" lon="17.746914">
        <ele>42.4354</ele>
        <time>2013-03-06T18:40:23Z</time>
      </trkpt>
      <trkpt lat="59.973977" lon="17.7469261">
        <ele>42.4354</ele>
        <time>2013-03-06T18:40:24Z</time>
      </trkpt>
      <trkpt lat="59.9739638" lon="17.746939">
        <ele>42.4354</ele>
        <time>2013-03-06T18:40:25Z</time>
      </trkpt>
      <trkpt lat="59.9739523" lon="17.7469525">
        <ele>42.4354</ele>
        <time>2013-03-06T18:40:26Z</time>
      </trkpt>
      <trkpt lat="59.9739404" lon="17.7469669">
        <ele>41.9547</ele>
        <time>2013-03-06T18:40:27Z</time>
      </trkpt>
      <trkpt lat="59.9739273" lon="17.7469813">
        <ele>41.9547</ele>
        <time>2013-03-06T18:40:28Z</time>
      </trkpt>
      <trkpt lat="59.9739148" lon="17.7469968">
        <ele>41.9547</ele>
        <time>2013-03-06T18:40:29Z</time>
      </trkpt>
      <trkpt lat="59.9739024" lon="17.747011">
        <ele>42.4354</ele>
        <time>2013-03-06T18:40:30Z</time>
      </trkpt>
      <trkpt lat="59.9738901" lon="17.747026">
        <ele>42.4354</ele>
        <time>2013-03-06T18:40:31Z</time>
      </trkpt>
      <trkpt lat="59.9738787" lon="17.7470384">
        <ele>42.4354</ele>
        <time>2013-03-06T18:40:32Z</time>
      </trkpt>
      <trkpt lat="59.9738663" lon="17.7470509">
        <ele>42.4354</ele>
        <time>2013-03-06T18:40:33Z</time>
      </trkpt>
      <trkpt lat="59.9738537" lon="17.7470611">
        <ele>42.4354</ele>
        <time>2013-03-06T18:40:34Z</time>
      </trkpt>
      <trkpt lat="59.9738412" lon="17.7470733">
        <ele>42.4354</ele>
        <time>2013-03-06T18:40:35Z</time>
      </trkpt>
      <trkpt lat="59.9738321" lon="17.7470859">
        <ele>41.474</ele>
        <time>2013-03-06T18:40:36Z</time>
      </trkpt>
      <trkpt lat="59.9738291" lon="17.7470896">
        <ele>41.474</ele>
        <time>2013-03-06T18:40:37Z</time>
      </trkpt>
      <trkpt lat="59.9738234" lon="17.7470982">
        <ele>41.474</ele>
        <time>2013-03-06T18:40:38Z</time>
      </trkpt>
      <trkpt lat="59.9738122" lon="17.7471161">
        <ele>41.474</ele>
        <time>2013-03-06T18:40:39Z</time>
      </trkpt>
      <trkpt lat="59.9738" lon="17.7471312">
        <ele>41.474</ele>
        <time>2013-03-06T18:40:40Z</time>
      </trkpt>
      <trkpt lat="59.9737871" lon="17.7471472">
        <ele>41.474</ele>
        <time>2013-03-06T18:40:41Z</time>
      </trkpt>
      <trkpt lat="59.9737773" lon="17.7471543">
        <ele>41.474</ele>
        <time>2013-03-06T18:40:42Z</time>
      </trkpt>
      <trkpt lat="59.9737683" lon="17.7471619">
        <ele>40.9934</ele>
        <time>2013-03-06T18:40:43Z</time>
      </trkpt>
      <trkpt lat="59.973758" lon="17.7471732">
        <ele>40.9934</ele>
        <time>2013-03-06T18:40:44Z</time>
      </trkpt>
      <trkpt lat="59.973747" lon="17.7471866">
        <ele>41.474</ele>
        <time>2013-03-06T18:40:45Z</time>
      </trkpt>
      <trkpt lat="59.9737352" lon="17.7471997">
        <ele>41.474</ele>
        <time>2013-03-06T18:40:46Z</time>
      </trkpt>
      <trkpt lat="59.9737255" lon="17.7472106">
        <ele>41.474</ele>
        <time>2013-03-06T18:40:47Z</time>
      </trkpt>
      <trkpt lat="59.9737171" lon="17.7472224">
        <ele>41.474</ele>
        <time>2013-03-06T18:40:48Z</time>
      </trkpt>
      <trkpt lat="59.9737063" lon="17.7472357">
        <ele>41.474</ele>
        <time>2013-03-06T18:40:49Z</time>
      </trkpt>
      <trkpt lat="59.9736954" lon="17.7472484">
        <ele>41.9547</ele>
        <time>2013-03-06T18:40:50Z</time>
      </trkpt>
      <trkpt lat="59.9736828" lon="17.7472529">
        <ele>42.4354</ele>
        <time>2013-03-06T18:40:51Z</time>
      </trkpt>
      <trkpt lat="59.9736711" lon="17.7472545">
        <ele>42.4354</ele>
        <time>2013-03-06T18:40:52Z</time>
      </trkpt>
      <trkpt lat="59.97366" lon="17.7472683">
        <ele>42.4354</ele>
        <time>2013-03-06T18:40:53Z</time>
      </trkpt>
      <trkpt lat="59.9736461" lon="17.7472864">
        <ele>42.4354</ele>
        <time>2013-03-06T18:40:54Z</time>
      </trkpt>
      <trkpt lat="59.9736322" lon="17.7473006">
        <ele>42.4354</ele>
        <time>2013-03-06T18:40:55Z</time>
      </trkpt>
      <trkpt lat="59.97362" lon="17.7473115">
        <ele>42.4354</ele>
        <time>2013-03-06T18:40:56Z</time>
      </trkpt>
      <trkpt lat="59.9736093" lon="17.7473279">
        <ele>41.9547</ele>
        <time>2013-03-06T18:40:57Z</time>
      </trkpt>
      <trkpt lat="59.973598" lon="17.7473426">
        <ele>41.474</ele>
        <time>2013-03-06T18:40:58Z</time>
      </trkpt>
      <trkpt lat="59.9735833" lon="17.7473602">
        <ele>41.474</ele>
        <time>2013-03-06T18:40:59Z</time>
      </trkpt>
      <trkpt lat="59.9735679" lon="17.7473802">
        <ele>41.9547</ele>
        <time>2013-03-06T18:41:00Z</time>
      </trkpt>
      <trkpt lat="59.9735538" lon="17.7473933">
        <ele>41.474</ele>
        <time>2013-03-06T18:41:01Z</time>
      </trkpt>
      <trkpt lat="59.9735399" lon="17.7474029">
        <ele>41.474</ele>
        <time>2013-03-06T18:41:02Z</time>
      </trkpt>
      <trkpt lat="59.973524" lon="17.7474136">
        <ele>40.9934</ele>
        <time>2013-03-06T18:41:03Z</time>
      </trkpt>
      <trkpt lat="59.9735079" lon="17.7474249">
        <ele>40.9934</ele>
        <time>2013-03-06T18:41:04Z</time>
      </trkpt>
      <trkpt lat="59.9734947" lon="17.7474418">
        <ele>40.9934</ele>
        <time>2013-03-06T18:41:05Z</time>
      </trkpt>
      <trkpt lat="59.9734809" lon="17.7474638">
        <ele>40.9934</ele>
        <time>2013-03-06T18:41:06Z</time>
      </trkpt>
      <trkpt lat="59.9734663" lon="17.7474839">
        <ele>40.9934</ele>
        <time>2013-03-06T18:41:07Z</time>
      </trkpt>
      <trkpt lat="59.9734519" lon="17.7475045">
        <ele>40.9934</ele>
        <time>2013-03-06T18:41:08Z</time>
      </trkpt>
      <trkpt lat="59.9734379" lon="17.7475249">
        <ele>40.9934</ele>
        <time>2013-03-06T18:41:09Z</time>
      </trkpt>
      <trkpt lat="59.9734219" lon="17.7475436">
        <ele>40.5128</ele>
        <time>2013-03-06T18:41:10Z</time>
      </trkpt>
      <trkpt lat="59.9734067" lon="17.7475613">
        <ele>40.9934</ele>
        <time>2013-03-06T18:41:11Z</time>
      </trkpt>
      <trkpt lat="59.9733919" lon="17.7475775">
        <ele>40.9934</ele>
        <time>2013-03-06T18:41:12Z</time>
      </trkpt>
      <trkpt lat="59.9733771" lon="17.7475925">
        <ele>40.9934</ele>
        <time>2013-03-06T18:41:13Z</time>
      </trkpt>
      <trkpt lat="59.9733623" lon="17.7476076">
        <ele>40.9934</ele>
        <time>2013-03-06T18:41:14Z</time>
      </trkpt>
      <trkpt lat="59.9733455" lon="17.747628">
        <ele>40.9934</ele>
        <time>2013-03-06T18:41:15Z</time>
      </trkpt>
      <trkpt lat="59.9733307" lon="17.7476435">
        <ele>40.5128</ele>
        <time>2013-03-06T18:41:16Z</time>
      </trkpt>
      <trkpt lat="59.9733141" lon="17.7476623">
        <ele>40.5128</ele>
        <time>2013-03-06T18:41:17Z</time>
      </trkpt>
      <trkpt lat="59.9732992" lon="17.7476749">
        <ele>40.5128</ele>
        <time>2013-03-06T18:41:18Z</time>
      </trkpt>
      <trkpt lat="59.9732856" lon="17.7476876">
        <ele>40.5128</ele>
        <time>2013-03-06T18:41:19Z</time>
      </trkpt>
      <trkpt lat="59.9732692" lon="17.7477024">
        <ele>40.5128</ele>
        <time>2013-03-06T18:41:20Z</time>
      </trkpt>
      <trkpt lat="59.9732533" lon="17.7477145">
        <ele>39.5513</ele>
        <time>2013-03-06T18:41:21Z</time>
      </trkpt>
      <trkpt lat="59.9732383" lon="17.7477306">
        <ele>39.5513</ele>
        <time>2013-03-06T18:41:22Z</time>
      </trkpt>
      <trkpt lat="59.9732196" lon="17.7477435">
        <ele>39.5513</ele>
        <time>2013-03-06T18:41:23Z</time>
      </trkpt>
      <trkpt lat="59.9732015" lon="17.7477518">
        <ele>39.0707</ele>
        <time>2013-03-06T18:41:24Z</time>
      </trkpt>
      <trkpt lat="59.9731871" lon="17.7477669">
        <ele>39.0707</ele>
        <time>2013-03-06T18:41:25Z</time>
      </trkpt>
      <trkpt lat="59.9731785" lon="17.7477866">
        <ele>38.5901</ele>
        <time>2013-03-06T18:41:26Z</time>
      </trkpt>
      <trkpt lat="59.9731696" lon="17.7478086">
        <ele>38.5901</ele>
        <time>2013-03-06T18:41:27Z</time>
      </trkpt>
      <trkpt lat="59.9731555" lon="17.7478264">
        <ele>39.0707</ele>
        <time>2013-03-06T18:41:28Z</time>
      </trkpt>
      <trkpt lat="59.97314" lon="17.7478464">
        <ele>38.5901</ele>
        <time>2013-03-06T18:41:29Z</time>
      </trkpt>
      <trkpt lat="59.9731236" lon="17.7478671">
        <ele>38.5901</ele>
        <time>2013-03-06T18:41:30Z</time>
      </trkpt>
      <trkpt lat="59.9731064" lon="17.747889">
        <ele>38.5901</ele>
        <time>2013-03-06T18:41:31Z</time>
      </trkpt>
      <trkpt lat="59.9730877" lon="17.7479129">
        <ele>38.5901</ele>
        <time>2013-03-06T18:41:32Z</time>
      </trkpt>
      <trkpt lat="59.9730702" lon="17.7479344">
        <ele>38.5901</ele>
        <time>2013-03-06T18:41:33Z</time>
      </trkpt>
      <trkpt lat="59.9730566" lon="17.7479518">
        <ele>38.5901</ele>
        <time>2013-03-06T18:41:34Z</time>
      </trkpt>
      <trkpt lat="59.973041" lon="17.7479687">
        <ele>38.5901</ele>
        <time>2013-03-06T18:41:35Z</time>
      </trkpt>
      <trkpt lat="59.973027" lon="17.7479867">
        <ele>38.1094</ele>
        <time>2013-03-06T18:41:36Z</time>
      </trkpt>
      <trkpt lat="59.9730145" lon="17.7480054">
        <ele>38.1094</ele>
        <time>2013-03-06T18:41:37Z</time>
      </trkpt>
      <trkpt lat="59.9730023" lon="17.7480274">
        <ele>38.1094</ele>
        <time>2013-03-06T18:41:38Z</time>
      </trkpt>
      <trkpt lat="59.9729879" lon="17.7480568">
        <ele>38.5901</ele>
        <time>2013-03-06T18:41:39Z</time>
      </trkpt>
      <trkpt lat="59.9729733" lon="17.7480838">
        <ele>38.5901</ele>
        <time>2013-03-06T18:41:40Z</time>
      </trkpt>
      <trkpt lat="59.9729589" lon="17.7481097">
        <ele>39.0707</ele>
        <time>2013-03-06T18:41:41Z</time>
      </trkpt>
      <trkpt lat="59.9729437" lon="17.748133">
        <ele>39.0707</ele>
        <time>2013-03-06T18:41:42Z</time>
      </trkpt>
      <trkpt lat="59.9729269" lon="17.7481566">
        <ele>39.0707</ele>
        <time>2013-03-06T18:41:43Z</time>
      </trkpt>
      <trkpt lat="59.9729128" lon="17.7481777">
        <ele>39.0707</ele>
        <time>2013-03-06T18:41:44Z</time>
      </trkpt>
      <trkpt lat="59.9729001" lon="17.7482036">
        <ele>40.0321</ele>
        <time>2013-03-06T18:41:45Z</time>
      </trkpt>
      <trkpt lat="59.9728874" lon="17.7482276">
        <ele>40.5128</ele>
        <time>2013-03-06T18:41:46Z</time>
      </trkpt>
      <trkpt lat="59.972877" lon="17.748248">
        <ele>40.0321</ele>
        <time>2013-03-06T18:41:47Z</time>
      </trkpt>
      <trkpt lat="59.9728646" lon="17.7482768">
        <ele>39.5513</ele>
        <time>2013-03-06T18:41:48Z</time>
      </trkpt>
      <trkpt lat="59.9728506" lon="17.7483138">
        <ele>40.5128</ele>
        <time>2013-03-06T18:41:49Z</time>
      </trkpt>
      <trkpt lat="59.9728396" lon="17.7483356">
        <ele>40.0321</ele>
        <time>2013-03-06T18:41:50Z</time>
      </trkpt>
      <trkpt lat="59.9728276" lon="17.7483542">
        <ele>40.5128</ele>
        <time>2013-03-06T18:41:51Z</time>
      </trkpt>
      <trkpt lat="59.9728161" lon="17.7483727">
        <ele>40.0321</ele>
        <time>2013-03-06T18:41:52Z</time>
      </trkpt>
      <trkpt lat="59.9728068" lon="17.7483869">
        <ele>40.0321</ele>
        <time>2013-03-06T18:41:53Z</time>
      </trkpt>
      <trkpt lat="59.9727996" lon="17.7483991">
        <ele>39.5513</ele>
        <time>2013-03-06T18:41:54Z</time>
      </trkpt>
      <trkpt lat="59.972792" lon="17.7484111">
        <ele>39.5513</ele>
        <time>2013-03-06T18:41:55Z</time>
      </trkpt>
      <trkpt lat="59.9727829" lon="17.748426">
        <ele>39.0707</ele>
        <time>2013-03-06T18:41:56Z</time>
      </trkpt>
      <trkpt lat="59.9727711" lon="17.7484483">
        <ele>40.0321</ele>
        <time>2013-03-06T18:41:57Z</time>
      </trkpt>
      <trkpt lat="59.9727609" lon="17.7484683">
        <ele>40.0321</ele>
        <time>2013-03-06T18:41:58Z</time>
      </trkpt>
      <trkpt lat="59.9727506" lon="17.7484897">
        <ele>40.0321</ele>
        <time>2013-03-06T18:41:59Z</time>
      </trkpt>
      <trkpt lat="59.9727405" lon="17.7485107">
        <ele>40.0321</ele>
        <time>2013-03-06T18:42:00Z</time>
      </trkpt>
      <trkpt lat="59.9727314" lon="17.7485324">
        <ele>40.0321</ele>
        <time>2013-03-06T18:42:01Z</time>
      </trkpt>
      <trkpt lat="59.9727218" lon="17.7485534">
        <ele>40.0321</ele>
        <time>2013-03-06T18:42:02Z</time>
      </trkpt>
      <trkpt lat="59.9727121" lon="17.7485736">
        <ele>40.0321</ele>
        <time>2013-03-06T18:42:03Z</time>
      </trkpt>
      <trkpt lat="59.9727035" lon="17.7485924">
        <ele>40.0321</ele>
        <time>2013-03-06T18:42:04Z</time>
      </trkpt>
      <trkpt lat="59.9726946" lon="17.7486116">
        <ele>40.5128</ele>
        <time>2013-03-06T18:42:05Z</time>
      </trkpt>
      <trkpt lat="59.9726856" lon="17.7486272">
        <ele>40.0321</ele>
        <time>2013-03-06T18:42:06Z</time>
      </trkpt>
      <trkpt lat="59.9726765" lon="17.7486463">
        <ele>40.0321</ele>
        <time>2013-03-06T18:42:07Z</time>
      </trkpt>
      <trkpt lat="59.9726671" lon="17.7486656">
        <ele>40.0321</ele>
        <time>2013-03-06T18:42:08Z</time>
      </trkpt>
      <trkpt lat="59.9726578" lon="17.74869">
        <ele>40.0321</ele>
        <time>2013-03-06T18:42:09Z</time>
      </trkpt>
      <trkpt lat="59.9726485" lon="17.748714">
        <ele>40.0321</ele>
        <time>2013-03-06T18:42:10Z</time>
      </trkpt>
      <trkpt lat="59.9726386" lon="17.7487328">
        <ele>39.5513</ele>
        <time>2013-03-06T18:42:11Z</time>
      </trkpt>
      <trkpt lat="59.9726278" lon="17.748755">
        <ele>39.5513</ele>
        <time>2013-03-06T18:42:12Z</time>
      </trkpt>
      <trkpt lat="59.9726163" lon="17.7487781">
        <ele>39.5513</ele>
        <time>2013-03-06T18:42:13Z</time>
      </trkpt>
      <trkpt lat="59.972605" lon="17.7488039">
        <ele>39.5513</ele>
        <time>2013-03-06T18:42:14Z</time>
      </trkpt>
      <trkpt lat="59.9725941" lon="17.7488324">
        <ele>39.5513</ele>
        <time>2013-03-06T18:42:15Z</time>
      </trkpt>
      <trkpt lat="59.9725833" lon="17.7488608">
        <ele>39.5513</ele>
        <time>2013-03-06T18:42:16Z</time>
      </trkpt>
      <trkpt lat="59.9725734" lon="17.7488846">
        <ele>39.5513</ele>
        <time>2013-03-06T18:42:17Z</time>
      </trkpt>
      <trkpt lat="59.9725623" lon="17.748906">
        <ele>40.0321</ele>
        <time>2013-03-06T18:42:18Z</time>
      </trkpt>
      <trkpt lat="59.9725515" lon="17.7489276">
        <ele>40.0321</ele>
        <time>2013-03-06T18:42:19Z</time>
      </trkpt>
      <trkpt lat="59.9725412" lon="17.7489521">
        <ele>40.0321</ele>
        <time>2013-03-06T18:42:20Z</time>
      </trkpt>
      <trkpt lat="59.9725329" lon="17.7489758">
        <ele>39.5513</ele>
        <time>2013-03-06T18:42:21Z</time>
      </trkpt>
      <trkpt lat="59.9725243" lon="17.7489971">
        <ele>40.0321</ele>
        <time>2013-03-06T18:42:22Z</time>
      </trkpt>
      <trkpt lat="59.9725158" lon="17.7490173">
        <ele>40.0321</ele>
        <time>2013-03-06T18:42:23Z</time>
      </trkpt>
      <trkpt lat="59.9725066" lon="17.749035">
        <ele>39.5513</ele>
        <time>2013-03-06T18:42:24Z</time>
      </trkpt>
      <trkpt lat="59.9724955" lon="17.7490546">
        <ele>39.5513</ele>
        <time>2013-03-06T18:42:25Z</time>
      </trkpt>
      <trkpt lat="59.9724853" lon="17.7490752">
        <ele>39.0707</ele>
        <time>2013-03-06T18:42:26Z</time>
      </trkpt>
      <trkpt lat="59.9724764" lon="17.749095">
        <ele>39.0707</ele>
        <time>2013-03-06T18:42:27Z</time>
      </trkpt>
      <trkpt lat="59.972468" lon="17.7491201">
        <ele>39.0707</ele>
        <time>2013-03-06T18:42:28Z</time>
      </trkpt>
      <trkpt lat="59.9724583" lon="17.7491466">
        <ele>39.0707</ele>
        <time>2013-03-06T18:42:29Z</time>
      </trkpt>
      <trkpt lat="59.9724495" lon="17.7491681">
        <ele>39.0707</ele>
        <time>2013-03-06T18:42:30Z</time>
      </trkpt>
      <trkpt lat="59.9724393" lon="17.7491955">
        <ele>39.0707</ele>
        <time>2013-03-06T18:42:31Z</time>
      </trkpt>
      <trkpt lat="59.9724295" lon="17.7492161">
        <ele>39.0707</ele>
        <time>2013-03-06T18:42:32Z</time>
      </trkpt>
      <trkpt lat="59.972421" lon="17.7492435">
        <ele>39.0707</ele>
        <time>2013-03-06T18:42:33Z</time>
      </trkpt>
      <trkpt lat="59.9724123" lon="17.749266">
        <ele>39.0707</ele>
        <time>2013-03-06T18:42:34Z</time>
      </trkpt>
      <trkpt lat="59.9724028" lon="17.7492859">
        <ele>39.0707</ele>
        <time>2013-03-06T18:42:35Z</time>
      </trkpt>
      <trkpt lat="59.9723915" lon="17.7493064">
        <ele>39.0707</ele>
        <time>2013-03-06T18:42:36Z</time>
      </trkpt>
      <trkpt lat="59.9723812" lon="17.7493255">
        <ele>39.0707</ele>
        <time>2013-03-06T18:42:37Z</time>
      </trkpt>
      <trkpt lat="59.9723704" lon="17.749345">
        <ele>39.5513</ele>
        <time>2013-03-06T18:42:38Z</time>
      </trkpt>
      <trkpt lat="59.972361" lon="17.7493628">
        <ele>39.0707</ele>
        <time>2013-03-06T18:42:39Z</time>
      </trkpt>
      <trkpt lat="59.9723517" lon="17.7493851">
        <ele>39.0707</ele>
        <time>2013-03-06T18:42:40Z</time>
      </trkpt>
      <trkpt lat="59.9723423" lon="17.7494027">
        <ele>39.5513</ele>
        <time>2013-03-06T18:42:41Z</time>
      </trkpt>
      <trkpt lat="59.9723325" lon="17.7494197">
        <ele>40.0321</ele>
        <time>2013-03-06T18:42:42Z</time>
      </trkpt>
      <trkpt lat="59.9723215" lon="17.7494388">
        <ele>40.0321</ele>
        <time>2013-03-06T18:42:43Z</time>
      </trkpt>
      <trkpt lat="59.9723128" lon="17.7494638">
        <ele>39.5513</ele>
        <time>2013-03-06T18:42:44Z</time>
      </trkpt>
      <trkpt lat="59.972305" lon="17.7494809">
        <ele>39.0707</ele>
        <time>2013-03-06T18:42:45Z</time>
      </trkpt>
      <trkpt lat="59.9722966" lon="17.7494962">
        <ele>39.0707</ele>
        <time>2013-03-06T18:42:46Z</time>
      </trkpt>
      <trkpt lat="59.9722884" lon="17.7495234">
        <ele>39.0707</ele>
        <time>2013-03-06T18:42:47Z</time>
      </trkpt>
      <trkpt lat="59.9722801" lon="17.7495546">
        <ele>38.5901</ele>
        <time>2013-03-06T18:42:48Z</time>
      </trkpt>
      <trkpt lat="59.9722696" lon="17.7495829">
        <ele>38.5901</ele>
        <time>2013-03-06T18:42:49Z</time>
      </trkpt>
      <trkpt lat="59.9722589" lon="17.7496092">
        <ele>38.5901</ele>
        <time>2013-03-06T18:42:50Z</time>
      </trkpt>
      <trkpt lat="59.9722486" lon="17.7496378">
        <ele>38.5901</ele>
        <time>2013-03-06T18:42:51Z</time>
      </trkpt>
      <trkpt lat="59.9722361" lon="17.7496659">
        <ele>38.5901</ele>
        <time>2013-03-06T18:42:52Z</time>
      </trkpt>
      <trkpt lat="59.9722232" lon="17.7496934">
        <ele>38.5901</ele>
        <time>2013-03-06T18:42:53Z</time>
      </trkpt>
      <trkpt lat="59.9722118" lon="17.7497254">
        <ele>39.0707</ele>
        <time>2013-03-06T18:42:54Z</time>
      </trkpt>
      <trkpt lat="59.9721991" lon="17.7497611">
        <ele>39.0707</ele>
        <time>2013-03-06T18:42:55Z</time>
      </trkpt>
      <trkpt lat="59.9721857" lon="17.7497943">
        <ele>39.5513</ele>
        <time>2013-03-06T18:42:56Z</time>
      </trkpt>
      <trkpt lat="59.9721714" lon="17.7498166">
        <ele>39.0707</ele>
        <time>2013-03-06T18:42:57Z</time>
      </trkpt>
      <trkpt lat="59.9721588" lon="17.7498332">
        <ele>39.0707</ele>
        <time>2013-03-06T18:42:58Z</time>
      </trkpt>
      <trkpt lat="59.9721491" lon="17.749855">
        <ele>39.0707</ele>
        <time>2013-03-06T18:42:59Z</time>
      </trkpt>
      <trkpt lat="59.9721385" lon="17.7498782">
        <ele>39.0707</ele>
        <time>2013-03-06T18:43:00Z</time>
      </trkpt>
      <trkpt lat="59.9721294" lon="17.749898">
        <ele>38.5901</ele>
        <time>2013-03-06T18:43:01Z</time>
      </trkpt>
      <trkpt lat="59.9721205" lon="17.7499215">
        <ele>38.5901</ele>
        <time>2013-03-06T18:43:02Z</time>
      </trkpt>
      <trkpt lat="59.9721113" lon="17.7499394">
        <ele>38.5901</ele>
        <time>2013-03-06T18:43:03Z</time>
      </trkpt>
      <trkpt lat="59.9721044" lon="17.7499593">
        <ele>38.1094</ele>
        <time>2013-03-06T18:43:04Z</time>
      </trkpt>
      <trkpt lat="59.9720961" lon="17.7499778">
        <ele>38.1094</ele>
        <time>2013-03-06T18:43:05Z</time>
      </trkpt>
      <trkpt lat="59.9720857" lon="17.7500056">
        <ele>38.1094</ele>
        <time>2013-03-06T18:43:06Z</time>
      </trkpt>
      <trkpt lat="59.9720748" lon="17.7500345">
        <ele>38.1094</ele>
        <time>2013-03-06T18:43:07Z</time>
      </trkpt>
      <trkpt lat="59.9720647" lon="17.7500631">
        <ele>38.1094</ele>
        <time>2013-03-06T18:43:08Z</time>
      </trkpt>
      <trkpt lat="59.9720547" lon="17.7500827">
        <ele>38.1094</ele>
        <time>2013-03-06T18:43:09Z</time>
      </trkpt>
      <trkpt lat="59.9720438" lon="17.7501102">
        <ele>38.1094</ele>
        <time>2013-03-06T18:43:10Z</time>
      </trkpt>
      <trkpt lat="59.9720321" lon="17.7501401">
        <ele>37.6287</ele>
        <time>2013-03-06T18:43:11Z</time>
      </trkpt>
      <trkpt lat="59.9720215" lon="17.750173">
        <ele>37.6287</ele>
        <time>2013-03-06T18:43:12Z</time>
      </trkpt>
      <trkpt lat="59.9720129" lon="17.7502002">
        <ele>37.1481</ele>
        <time>2013-03-06T18:43:13Z</time>
      </trkpt>
      <trkpt lat="59.9720042" lon="17.7502253">
        <ele>37.1481</ele>
        <time>2013-03-06T18:43:14Z</time>
      </trkpt>
      <trkpt lat="59.9719968" lon="17.7502445">
        <ele>36.6675</ele>
        <time>2013-03-06T18:43:15Z</time>
      </trkpt>
      <trkpt lat="59.9719865" lon="17.7502679">
        <ele>37.1481</ele>
        <time>2013-03-06T18:43:16Z</time>
      </trkpt>
      <trkpt lat="59.971976" lon="17.750289">
        <ele>37.1481</ele>
        <time>2013-03-06T18:43:17Z</time>
      </trkpt>
      <trkpt lat="59.9719664" lon="17.75031">
        <ele>36.6675</ele>
        <time>2013-03-06T18:43:18Z</time>
      </trkpt>
      <trkpt lat="59.9719555" lon="17.7503326">
        <ele>36.6675</ele>
        <time>2013-03-06T18:43:19Z</time>
      </trkpt>
      <trkpt lat="59.9719429" lon="17.7503588">
        <ele>37.1481</ele>
        <time>2013-03-06T18:43:20Z</time>
      </trkpt>
      <trkpt lat="59.971931" lon="17.7503807">
        <ele>36.6675</ele>
        <time>2013-03-06T18:43:21Z</time>
      </trkpt>
      <trkpt lat="59.9719189" lon="17.7504086">
        <ele>36.6675</ele>
        <time>2013-03-06T18:43:22Z</time>
      </trkpt>
      <trkpt lat="59.9719067" lon="17.7504354">
        <ele>36.6675</ele>
        <time>2013-03-06T18:43:23Z</time>
      </trkpt>
      <trkpt lat="59.9718938" lon="17.7504531">
        <ele>36.6675</ele>
        <time>2013-03-06T18:43:24Z</time>
      </trkpt>
      <trkpt lat="59.9718818" lon="17.7504667">
        <ele>36.6675</ele>
        <time>2013-03-06T18:43:25Z</time>
      </trkpt>
      <trkpt lat="59.9718678" lon="17.7504806">
        <ele>36.6675</ele>
        <time>2013-03-06T18:43:26Z</time>
      </trkpt>
      <trkpt lat="59.9718519" lon="17.7505027">
        <ele>36.6675</ele>
        <time>2013-03-06T18:43:27Z</time>
      </trkpt>
      <trkpt lat="59.9718423" lon="17.7505178">
        <ele>36.6675</ele>
        <time>2013-03-06T18:43:28Z</time>
      </trkpt>
      <trkpt lat="59.9718331" lon="17.7505314">
        <ele>36.6675</ele>
        <time>2013-03-06T18:43:29Z</time>
      </trkpt>
      <trkpt lat="59.9718205" lon="17.750545">
        <ele>36.6675</ele>
        <time>2013-03-06T18:43:30Z</time>
      </trkpt>
      <trkpt lat="59.9718046" lon="17.7505636">
        <ele>36.6675</ele>
        <time>2013-03-06T18:43:31Z</time>
      </trkpt>
      <trkpt lat="59.9717906" lon="17.7505742">
        <ele>37.1481</ele>
        <time>2013-03-06T18:43:32Z</time>
      </trkpt>
      <trkpt lat="59.971778" lon="17.7505935">
        <ele>37.6287</ele>
        <time>2013-03-06T18:43:33Z</time>
      </trkpt>
      <trkpt lat="59.9717661" lon="17.7506175">
        <ele>37.1481</ele>
        <time>2013-03-06T18:43:34Z</time>
      </trkpt>
      <trkpt lat="59.9717519" lon="17.7506398">
        <ele>36.6675</ele>
        <time>2013-03-06T18:43:35Z</time>
      </trkpt>
      <trkpt lat="59.9717374" lon="17.7506687">
        <ele>37.1481</ele>
        <time>2013-03-06T18:43:36Z</time>
      </trkpt>
      <trkpt lat="59.9717244" lon="17.7506926">
        <ele>37.1481</ele>
        <time>2013-03-06T18:43:37Z</time>
      </trkpt>
      <trkpt lat="59.9717112" lon="17.7507162">
        <ele>36.6675</ele>
        <time>2013-03-06T18:43:38Z</time>
      </trkpt>
      <trkpt lat="59.9716995" lon="17.750739">
        <ele>36.6675</ele>
        <time>2013-03-06T18:43:39Z</time>
      </trkpt>
      <trkpt lat="59.9716892" lon="17.7507607">
        <ele>36.6675</ele>
        <time>2013-03-06T18:43:40Z</time>
      </trkpt>
      <trkpt lat="59.9716796" lon="17.7507816">
        <ele>36.6675</ele>
        <time>2013-03-06T18:43:41Z</time>
      </trkpt>
      <trkpt lat="59.9716699" lon="17.7508049">
        <ele>36.6675</ele>
        <time>2013-03-06T18:43:42Z</time>
      </trkpt>
      <trkpt lat="59.9716591" lon="17.7508328">
        <ele>36.1868</ele>
        <time>2013-03-06T18:43:43Z</time>
      </trkpt>
      <trkpt lat="59.9716446" lon="17.7508598">
        <ele>36.1868</ele>
        <time>2013-03-06T18:43:44Z</time>
      </trkpt>
      <trkpt lat="59.971633" lon="17.7508824">
        <ele>35.7061</ele>
        <time>2013-03-06T18:43:45Z</time>
      </trkpt>
      <trkpt lat="59.9716226" lon="17.7509013">
        <ele>35.7061</ele>
        <time>2013-03-06T18:43:46Z</time>
      </trkpt>
      <trkpt lat="59.9716082" lon="17.7509199">
        <ele>35.2255</ele>
        <time>2013-03-06T18:43:47Z</time>
      </trkpt>
      <trkpt lat="59.9715927" lon="17.7509365">
        <ele>35.2255</ele>
        <time>2013-03-06T18:43:48Z</time>
      </trkpt>
      <trkpt lat="59.9715782" lon="17.7509527">
        <ele>35.7061</ele>
        <time>2013-03-06T18:43:49Z</time>
      </trkpt>
      <trkpt lat="59.9715661" lon="17.7509763">
        <ele>36.1868</ele>
        <time>2013-03-06T18:43:50Z</time>
      </trkpt>
      <trkpt lat="59.9715563" lon="17.7510007">
        <ele>36.1868</ele>
        <time>2013-03-06T18:43:51Z</time>
      </trkpt>
      <trkpt lat="59.9715426" lon="17.7510246">
        <ele>36.1868</ele>
        <time>2013-03-06T18:43:52Z</time>
      </trkpt>
      <trkpt lat="59.9715292" lon="17.7510457">
        <ele>36.6675</ele>
        <time>2013-03-06T18:43:53Z</time>
      </trkpt>
      <trkpt lat="59.9715161" lon="17.7510649">
        <ele>36.1868</ele>
        <time>2013-03-06T18:43:54Z</time>
      </trkpt>
      <trkpt lat="59.9715031" lon="17.75108">
        <ele>35.7061</ele>
        <time>2013-03-06T18:43:55Z</time>
      </trkpt>
      <trkpt lat="59.9714908" lon="17.7510953">
        <ele>35.2255</ele>
        <time>2013-03-06T18:43:56Z</time>
      </trkpt>
      <trkpt lat="59.9714803" lon="17.7511114">
        <ele>34.7449</ele>
        <time>2013-03-06T18:43:57Z</time>
      </trkpt>
      <trkpt lat="59.9714683" lon="17.7511302">
        <ele>34.2642</ele>
        <time>2013-03-06T18:43:58Z</time>
      </trkpt>
      <trkpt lat="59.9714556" lon="17.7511509">
        <ele>34.2642</ele>
        <time>2013-03-06T18:43:59Z</time>
      </trkpt>
      <trkpt lat="59.9714437" lon="17.7511717">
        <ele>34.2642</ele>
        <time>2013-03-06T18:44:00Z</time>
      </trkpt>
      <trkpt lat="59.9714321" lon="17.7511913">
        <ele>34.2642</ele>
        <time>2013-03-06T18:44:01Z</time>
      </trkpt>
      <trkpt lat="59.971418" lon="17.7512141">
        <ele>33.7834</ele>
        <time>2013-03-06T18:44:02Z</time>
      </trkpt>
      <trkpt lat="59.9714042" lon="17.7512371">
        <ele>33.7834</ele>
        <time>2013-03-06T18:44:03Z</time>
      </trkpt>
      <trkpt lat="59.9713919" lon="17.7512569">
        <ele>33.7834</ele>
        <time>2013-03-06T18:44:04Z</time>
      </trkpt>
      <trkpt lat="59.9713807" lon="17.7512742">
        <ele>33.7834</ele>
        <time>2013-03-06T18:44:05Z</time>
      </trkpt>
      <trkpt lat="59.971368" lon="17.7512903">
        <ele>33.7834</ele>
        <time>2013-03-06T18:44:06Z</time>
      </trkpt>
      <trkpt lat="59.9713545" lon="17.7513058">
        <ele>33.7834</ele>
        <time>2013-03-06T18:44:07Z</time>
      </trkpt>
      <trkpt lat="59.97134" lon="17.7513249">
        <ele>33.7834</ele>
        <time>2013-03-06T18:44:08Z</time>
      </trkpt>
      <trkpt lat="59.9713229" lon="17.7513509">
        <ele>33.7834</ele>
        <time>2013-03-06T18:44:09Z</time>
      </trkpt>
      <trkpt lat="59.9713056" lon="17.7513808">
        <ele>33.3029</ele>
        <time>2013-03-06T18:44:10Z</time>
      </trkpt>
      <trkpt lat="59.97129" lon="17.7514041">
        <ele>33.7834</ele>
        <time>2013-03-06T18:44:11Z</time>
      </trkpt>
      <trkpt lat="59.9712762" lon="17.7514193">
        <ele>33.3029</ele>
        <time>2013-03-06T18:44:12Z</time>
      </trkpt>
      <trkpt lat="59.9712616" lon="17.7514436">
        <ele>33.3029</ele>
        <time>2013-03-06T18:44:13Z</time>
      </trkpt>
      <trkpt lat="59.9712498" lon="17.7514648">
        <ele>33.3029</ele>
        <time>2013-03-06T18:44:14Z</time>
      </trkpt>
      <trkpt lat="59.9712362" lon="17.7514844">
        <ele>32.8223</ele>
        <time>2013-03-06T18:44:15Z</time>
      </trkpt>
      <trkpt lat="59.9712238" lon="17.751508">
        <ele>32.3416</ele>
        <time>2013-03-06T18:44:16Z</time>
      </trkpt>
      <trkpt lat="59.971211" lon="17.7515318">
        <ele>32.3416</ele>
        <time>2013-03-06T18:44:17Z</time>
      </trkpt>
      <trkpt lat="59.9711971" lon="17.7515602">
        <ele>31.8607</ele>
        <time>2013-03-06T18:44:18Z</time>
      </trkpt>
      <trkpt lat="59.9711825" lon="17.7515831">
        <ele>31.3801</ele>
        <time>2013-03-06T18:44:19Z</time>
      </trkpt>
      <trkpt lat="59.9711679" lon="17.7515993">
        <ele>30.8995</ele>
        <time>2013-03-06T18:44:20Z</time>
      </trkpt>
      <trkpt lat="59.9711545" lon="17.7516139">
        <ele>30.4188</ele>
        <time>2013-03-06T18:44:21Z</time>
      </trkpt>
      <trkpt lat="59.9711422" lon="17.7516301">
        <ele>29.9381</ele>
        <time>2013-03-06T18:44:22Z</time>
      </trkpt>
      <trkpt lat="59.9711284" lon="17.7516477">
        <ele>29.9381</ele>
        <time>2013-03-06T18:44:23Z</time>
      </trkpt>
      <trkpt lat="59.9711114" lon="17.7516589">
        <ele>29.9381</ele>
        <time>2013-03-06T18:44:24Z</time>
      </trkpt>
      <trkpt lat="59.9711004" lon="17.7516684">
        <ele>29.9381</ele>
        <time>2013-03-06T18:44:25Z</time>
      </trkpt>
      <trkpt lat="59.9710903" lon="17.7516724">
        <ele>29.9381</ele>
        <time>2013-03-06T18:44:26Z</time>
      </trkpt>
      <trkpt lat="59.9710747" lon="17.7516727">
        <ele>29.9381</ele>
        <time>2013-03-06T18:44:27Z</time>
      </trkpt>
      <trkpt lat="59.9710561" lon="17.7516793">
        <ele>29.9381</ele>
        <time>2013-03-06T18:44:28Z</time>
      </trkpt>
      <trkpt lat="59.97104" lon="17.751697">
        <ele>29.9381</ele>
        <time>2013-03-06T18:44:29Z</time>
      </trkpt>
      <trkpt lat="59.9710261" lon="17.7517171">
        <ele>29.4575</ele>
        <time>2013-03-06T18:44:30Z</time>
      </trkpt>
      <trkpt lat="59.9710132" lon="17.7517322">
        <ele>28.9769</ele>
        <time>2013-03-06T18:44:31Z</time>
      </trkpt>
      <trkpt lat="59.9709991" lon="17.7517466">
        <ele>28.9769</ele>
        <time>2013-03-06T18:44:32Z</time>
      </trkpt>
      <trkpt lat="59.9709847" lon="17.7517638">
        <ele>28.9769</ele>
        <time>2013-03-06T18:44:33Z</time>
      </trkpt>
      <trkpt lat="59.9709721" lon="17.7517753">
        <ele>28.9769</ele>
        <time>2013-03-06T18:44:34Z</time>
      </trkpt>
      <trkpt lat="59.9709604" lon="17.7517881">
        <ele>28.9769</ele>
        <time>2013-03-06T18:44:35Z</time>
      </trkpt>
      <trkpt lat="59.9709463" lon="17.75181">
        <ele>28.9769</ele>
        <time>2013-03-06T18:44:36Z</time>
      </trkpt>
      <trkpt lat="59.9709323" lon="17.7518259">
        <ele>28.9769</ele>
        <time>2013-03-06T18:44:37Z</time>
      </trkpt>
      <trkpt lat="59.9709188" lon="17.7518426">
        <ele>29.4575</ele>
        <time>2013-03-06T18:44:38Z</time>
      </trkpt>
      <trkpt lat="59.9709043" lon="17.7518649">
        <ele>29.4575</ele>
        <time>2013-03-06T18:44:39Z</time>
      </trkpt>
      <trkpt lat="59.9708898" lon="17.751885">
        <ele>29.4575</ele>
        <time>2013-03-06T18:44:40Z</time>
      </trkpt>
      <trkpt lat="59.9708769" lon="17.7519081">
        <ele>29.9381</ele>
        <time>2013-03-06T18:44:41Z</time>
      </trkpt>
      <trkpt lat="59.9708681" lon="17.7519326">
        <ele>30.4188</ele>
        <time>2013-03-06T18:44:42Z</time>
      </trkpt>
      <trkpt lat="59.9708599" lon="17.7519601">
        <ele>30.4188</ele>
        <time>2013-03-06T18:44:43Z</time>
      </trkpt>
      <trkpt lat="59.9708485" lon="17.7519876">
        <ele>30.8995</ele>
        <time>2013-03-06T18:44:44Z</time>
      </trkpt>
      <trkpt lat="59.9708366" lon="17.7520145">
        <ele>31.3801</ele>
        <time>2013-03-06T18:44:45Z</time>
      </trkpt>
      <trkpt lat="59.9708266" lon="17.7520366">
        <ele>31.3801</ele>
        <time>2013-03-06T18:44:46Z</time>
      </trkpt>
      <trkpt lat="59.9708157" lon="17.7520581">
        <ele>31.8607</ele>
        <time>2013-03-06T18:44:47Z</time>
      </trkpt>
      <trkpt lat="59.9708007" lon="17.7520792">
        <ele>32.3416</ele>
        <time>2013-03-06T18:44:48Z</time>
      </trkpt>
      <trkpt lat="59.9707863" lon="17.7520985">
        <ele>33.3029</ele>
        <time>2013-03-06T18:44:49Z</time>
      </trkpt>
      <trkpt lat="59.9707723" lon="17.7521189">
        <ele>33.7834</ele>
        <time>2013-03-06T18:44:50Z</time>
      </trkpt>
      <trkpt lat="59.9707586" lon="17.7521366">
        <ele>33.7834</ele>
        <time>2013-03-06T18:44:51Z</time>
      </trkpt>
      <trkpt lat="59.9707463" lon="17.7521559">
        <ele>34.2642</ele>
        <time>2013-03-06T18:44:52Z</time>
      </trkpt>
      <trkpt lat="59.9707339" lon="17.7521764">
        <ele>34.7449</ele>
        <time>2013-03-06T18:44:53Z</time>
      </trkpt>
      <trkpt lat="59.9707218" lon="17.7521945">
        <ele>35.2255</ele>
        <time>2013-03-06T18:44:54Z</time>
      </trkpt>
      <trkpt lat="59.9707105" lon="17.7522138">
        <ele>35.7061</ele>
        <time>2013-03-06T18:44:55Z</time>
      </trkpt>
      <trkpt lat="59.9706987" lon="17.7522345">
        <ele>35.7061</ele>
        <time>2013-03-06T18:44:56Z</time>
      </trkpt>
      <trkpt lat="59.9706871" lon="17.7522567">
        <ele>36.1868</ele>
        <time>2013-03-06T18:44:57Z</time>
      </trkpt>
      <trkpt lat="59.9706758" lon="17.752284">
        <ele>36.6675</ele>
        <time>2013-03-06T18:44:58Z</time>
      </trkpt>
      <trkpt lat="59.970664" lon="17.7523103">
        <ele>37.1481</ele>
        <time>2013-03-06T18:44:59Z</time>
      </trkpt>
      <trkpt lat="59.9706545" lon="17.752334">
        <ele>37.1481</ele>
        <time>2013-03-06T18:45:00Z</time>
      </trkpt>
      <trkpt lat="59.9706458" lon="17.75236">
        <ele>37.6287</ele>
        <time>2013-03-06T18:45:01Z</time>
      </trkpt>
      <trkpt lat="59.9706344" lon="17.7523911">
        <ele>38.1094</ele>
        <time>2013-03-06T18:45:02Z</time>
      </trkpt>
      <trkpt lat="59.9706199" lon="17.7524126">
        <ele>38.5901</ele>
        <time>2013-03-06T18:45:03Z</time>
      </trkpt>
      <trkpt lat="59.9706074" lon="17.7524351">
        <ele>39.0707</ele>
        <time>2013-03-06T18:45:04Z</time>
      </trkpt>
      <trkpt lat="59.9705935" lon="17.7524585">
        <ele>40.0321</ele>
        <time>2013-03-06T18:45:05Z</time>
      </trkpt>
      <trkpt lat="59.970578" lon="17.7524899">
        <ele>40.5128</ele>
        <time>2013-03-06T18:45:06Z</time>
      </trkpt>
      <trkpt lat="59.9705629" lon="17.752521">
        <ele>40.9934</ele>
        <time>2013-03-06T18:45:07Z</time>
      </trkpt>
      <trkpt lat="59.9705505" lon="17.7525439">
        <ele>40.9934</ele>
        <time>2013-03-06T18:45:08Z</time>
      </trkpt>
      <trkpt lat="59.9705438" lon="17.7525606">
        <ele>40.5128</ele>
        <time>2013-03-06T18:45:09Z</time>
      </trkpt>
      <trkpt lat="59.9705386" lon="17.7525833">
        <ele>40.5128</ele>
        <time>2013-03-06T18:45:10Z</time>
      </trkpt>
      <trkpt lat="59.970532" lon="17.752606">
        <ele>40.0321</ele>
        <time>2013-03-06T18:45:11Z</time>
      </trkpt>
      <trkpt lat="59.9705229" lon="17.7526092">
        <ele>40.0321</ele>
        <time>2013-03-06T18:45:12Z</time>
      </trkpt>
      <trkpt lat="59.9705154" lon="17.7526159">
        <ele>40.0321</ele>
        <time>2013-03-06T18:45:13Z</time>
      </trkpt>
      <trkpt lat="59.970512" lon="17.7526366">
        <ele>40.0321</ele>
        <time>2013-03-06T18:45:14Z</time>
      </trkpt>
      <trkpt lat="59.9705086" lon="17.7526609">
        <ele>40.0321</ele>
        <time>2013-03-06T18:45:15Z</time>
      </trkpt>
      <trkpt lat="59.9705043" lon="17.7526861">
        <ele>40.5128</ele>
        <time>2013-03-06T18:45:16Z</time>
      </trkpt>
      <trkpt lat="59.9705013" lon="17.7526999">
        <ele>40.0321</ele>
        <time>2013-03-06T18:45:17Z</time>
      </trkpt>
      <trkpt lat="59.9704976" lon="17.7527055">
        <ele>40.0321</ele>
        <time>2013-03-06T18:45:18Z</time>
      </trkpt>
      <trkpt lat="59.9704956" lon="17.7527053">
        <ele>40.0321</ele>
        <time>2013-03-06T18:45:19Z</time>
      </trkpt>
      <trkpt lat="59.9704951" lon="17.7527038">
        <ele>40.0321</ele>
        <time>2013-03-06T18:45:20Z</time>
      </trkpt>
      <trkpt lat="59.9704959" lon="17.7526986">
        <ele>40.0321</ele>
        <time>2013-03-06T18:45:21Z</time>
      </trkpt>
      <trkpt lat="59.970494" lon="17.7526981">
        <ele>40.0321</ele>
        <time>2013-03-06T18:45:22Z</time>
      </trkpt>
      <trkpt lat="59.970481" lon="17.7527314">
        <ele>39.0707</ele>
        <time>2013-03-06T18:45:23Z</time>
      </trkpt>
      <trkpt lat="59.9704678" lon="17.7527344">
        <ele>39.0707</ele>
        <time>2013-03-06T18:45:24Z</time>
      </trkpt>
      <trkpt lat="59.9704464" lon="17.752745">
        <ele>39.0707</ele>
        <time>2013-03-06T18:45:25Z</time>
      </trkpt>
      <trkpt lat="59.9704328" lon="17.7527583">
        <ele>39.5513</ele>
        <time>2013-03-06T18:45:26Z</time>
      </trkpt>
      <trkpt lat="59.9704214" lon="17.7527682">
        <ele>39.5513</ele>
        <time>2013-03-06T18:45:27Z</time>
      </trkpt>
      <trkpt lat="59.9704148" lon="17.7527557">
        <ele>39.5513</ele>
        <time>2013-03-06T18:45:28Z</time>
      </trkpt>
      <trkpt lat="59.970405" lon="17.7527616">
        <ele>39.5513</ele>
        <time>2013-03-06T18:45:29Z</time>
      </trkpt>
      <trkpt lat="59.9703982" lon="17.7527573">
        <ele>39.5513</ele>
        <time>2013-03-06T18:45:30Z</time>
      </trkpt>
      <trkpt lat="59.9703926" lon="17.752764">
        <ele>39.5513</ele>
        <time>2013-03-06T18:45:31Z</time>
      </trkpt>
      <trkpt lat="59.9703874" lon="17.7527851">
        <ele>39.5513</ele>
        <time>2013-03-06T18:45:32Z</time>
      </trkpt>
      <trkpt lat="59.9703857" lon="17.752802">
        <ele>39.5513</ele>
        <time>2013-03-06T18:45:33Z</time>
      </trkpt>
      <trkpt lat="59.9703843" lon="17.7528164">
        <ele>39.0707</ele>
        <time>2013-03-06T18:45:34Z</time>
      </trkpt>
      <trkpt lat="59.970379" lon="17.752845">
        <ele>39.0707</ele>
        <time>2013-03-06T18:45:35Z</time>
      </trkpt>
      <trkpt lat="59.9703717" lon="17.7528686">
        <ele>38.5901</ele>
        <time>2013-03-06T18:45:36Z</time>
      </trkpt>
      <trkpt lat="59.9703621" lon="17.7528965">
        <ele>38.5901</ele>
        <time>2013-03-06T18:45:37Z</time>
      </trkpt>
      <trkpt lat="59.970349" lon="17.752912">
        <ele>38.5901</ele>
        <time>2013-03-06T18:45:38Z</time>
      </trkpt>
      <trkpt lat="59.9703381" lon="17.7529261">
        <ele>38.5901</ele>
        <time>2013-03-06T18:45:39Z</time>
      </trkpt>
      <trkpt lat="59.9703286" lon="17.7529472">
        <ele>38.5901</ele>
        <time>2013-03-06T18:45:40Z</time>
      </trkpt>
      <trkpt lat="59.970322" lon="17.7529807">
        <ele>38.5901</ele>
        <time>2013-03-06T18:45:41Z</time>
      </trkpt>
      <trkpt lat="59.9703155" lon="17.753007">
        <ele>39.0707</ele>
        <time>2013-03-06T18:45:42Z</time>
      </trkpt>
      <trkpt lat="59.9703106" lon="17.7530272">
        <ele>39.5513</ele>
        <time>2013-03-06T18:45:43Z</time>
      </trkpt>
      <trkpt lat="59.9703076" lon="17.7530541">
        <ele>39.5513</ele>
        <time>2013-03-06T18:45:44Z</time>
      </trkpt>
      <trkpt lat="59.970302" lon="17.7530784">
        <ele>40.0321</ele>
        <time>2013-03-06T18:45:45Z</time>
      </trkpt>
      <trkpt lat="59.9702946" lon="17.7531013">
        <ele>40.5128</ele>
        <time>2013-03-06T18:45:46Z</time>
      </trkpt>
      <trkpt lat="59.9702858" lon="17.7531355">
        <ele>40.5128</ele>
        <time>2013-03-06T18:45:47Z</time>
      </trkpt>
      <trkpt lat="59.9702769" lon="17.7531681">
        <ele>40.5128</ele>
        <time>2013-03-06T18:45:48Z</time>
      </trkpt>
      <trkpt lat="59.9702687" lon="17.7531945">
        <ele>40.5128</ele>
        <time>2013-03-06T18:45:49Z</time>
      </trkpt>
      <trkpt lat="59.9702599" lon="17.753226">
        <ele>40.9934</ele>
        <time>2013-03-06T18:45:50Z</time>
      </trkpt>
      <trkpt lat="59.9702527" lon="17.7532534">
        <ele>40.9934</ele>
        <time>2013-03-06T18:45:51Z</time>
      </trkpt>
      <trkpt lat="59.9702447" lon="17.7532722">
        <ele>40.9934</ele>
        <time>2013-03-06T18:45:52Z</time>
      </trkpt>
      <trkpt lat="59.9702351" lon="17.7532971">
        <ele>40.5128</ele>
        <time>2013-03-06T18:45:53Z</time>
      </trkpt>
      <trkpt lat="59.9702273" lon="17.7533243">
        <ele>40.9934</ele>
        <time>2013-03-06T18:45:54Z</time>
      </trkpt>
      <trkpt lat="59.9702195" lon="17.7533551">
        <ele>40.0321</ele>
        <time>2013-03-06T18:45:55Z</time>
      </trkpt>
      <trkpt lat="59.9702076" lon="17.753388">
        <ele>40.9934</ele>
        <time>2013-03-06T18:45:56Z</time>
      </trkpt>
      <trkpt lat="59.9702004" lon="17.7534147">
        <ele>40.9934</ele>
        <time>2013-03-06T18:45:57Z</time>
      </trkpt>
      <trkpt lat="59.9701939" lon="17.7534488">
        <ele>41.474</ele>
        <time>2013-03-06T18:45:58Z</time>
      </trkpt>
      <trkpt lat="59.97019" lon="17.7534758">
        <ele>41.474</ele>
        <time>2013-03-06T18:45:59Z</time>
      </trkpt>
      <trkpt lat="59.9701846" lon="17.7535032">
        <ele>41.9547</ele>
        <time>2013-03-06T18:46:00Z</time>
      </trkpt>
      <trkpt lat="59.9701766" lon="17.7535383">
        <ele>41.9547</ele>
        <time>2013-03-06T18:46:01Z</time>
      </trkpt>
      <trkpt lat="59.970166" lon="17.7535779">
        <ele>42.4354</ele>
        <time>2013-03-06T18:46:02Z</time>
      </trkpt>
      <trkpt lat="59.9701533" lon="17.7536105">
        <ele>42.916</ele>
        <time>2013-03-06T18:46:03Z</time>
      </trkpt>
      <trkpt lat="59.9701408" lon="17.7536434">
        <ele>42.916</ele>
        <time>2013-03-06T18:46:04Z</time>
      </trkpt>
      <trkpt lat="59.9701307" lon="17.7536685">
        <ele>43.3966</ele>
        <time>2013-03-06T18:46:05Z</time>
      </trkpt>
      <trkpt lat="59.9701231" lon="17.7536887">
        <ele>43.3966</ele>
        <time>2013-03-06T18:46:06Z</time>
      </trkpt>
      <trkpt lat="59.9701159" lon="17.7537188">
        <ele>43.8773</ele>
        <time>2013-03-06T18:46:07Z</time>
      </trkpt>
      <trkpt lat="59.970108" lon="17.753752">
        <ele>44.358</ele>
        <time>2013-03-06T18:46:08Z</time>
      </trkpt>
      <trkpt lat="59.9700971" lon="17.7537829">
        <ele>44.8386</ele>
        <time>2013-03-06T18:46:09Z</time>
      </trkpt>
      <trkpt lat="59.9700862" lon="17.7538078">
        <ele>44.358</ele>
        <time>2013-03-06T18:46:10Z</time>
      </trkpt>
      <trkpt lat="59.9700755" lon="17.7538273">
        <ele>43.8773</ele>
        <time>2013-03-06T18:46:11Z</time>
      </trkpt>
      <trkpt lat="59.9700667" lon="17.7538483">
        <ele>43.8773</ele>
        <time>2013-03-06T18:46:12Z</time>
      </trkpt>
      <trkpt lat="59.9700572" lon="17.7538705">
        <ele>43.8773</ele>
        <time>2013-03-06T18:46:13Z</time>
      </trkpt>
      <trkpt lat="59.9700458" lon="17.7538973">
        <ele>43.8773</ele>
        <time>2013-03-06T18:46:14Z</time>
      </trkpt>
      <trkpt lat="59.9700323" lon="17.7539316">
        <ele>44.358</ele>
        <time>2013-03-06T18:46:15Z</time>
      </trkpt>
      <trkpt lat="59.9700211" lon="17.7539606">
        <ele>44.358</ele>
        <time>2013-03-06T18:46:16Z</time>
      </trkpt>
      <trkpt lat="59.9700081" lon="17.7539974">
        <ele>45.3192</ele>
        <time>2013-03-06T18:46:17Z</time>
      </trkpt>
      <trkpt lat="59.9699993" lon="17.7540188">
        <ele>44.8386</ele>
        <time>2013-03-06T18:46:18Z</time>
      </trkpt>
      <trkpt lat="59.9699906" lon="17.7540413">
        <ele>45.3192</ele>
        <time>2013-03-06T18:46:19Z</time>
      </trkpt>
      <trkpt lat="59.9699838" lon="17.7540616">
        <ele>44.8386</ele>
        <time>2013-03-06T18:46:20Z</time>
      </trkpt>
      <trkpt lat="59.9699756" lon="17.7540791">
        <ele>44.8386</ele>
        <time>2013-03-06T18:46:21Z</time>
      </trkpt>
      <trkpt lat="59.9699665" lon="17.7540933">
        <ele>44.8386</ele>
        <time>2013-03-06T18:46:22Z</time>
      </trkpt>
      <trkpt lat="59.9699568" lon="17.7541098">
        <ele>44.8386</ele>
        <time>2013-03-06T18:46:23Z</time>
      </trkpt>
      <trkpt lat="59.9699491" lon="17.7541307">
        <ele>45.3192</ele>
        <time>2013-03-06T18:46:24Z</time>
      </trkpt>
      <trkpt lat="59.9699412" lon="17.7541514">
        <ele>44.8386</ele>
        <time>2013-03-06T18:46:25Z</time>
      </trkpt>
      <trkpt lat="59.9699306" lon="17.7541699">
        <ele>44.8386</ele>
        <time>2013-03-06T18:46:26Z</time>
      </trkpt>
      <trkpt lat="59.9699204" lon="17.7541839">
        <ele>44.8386</ele>
        <time>2013-03-06T18:46:27Z</time>
      </trkpt>
      <trkpt lat="59.9699061" lon="17.7541987">
        <ele>44.358</ele>
        <time>2013-03-06T18:46:28Z</time>
      </trkpt>
      <trkpt lat="59.969893" lon="17.7542161">
        <ele>44.358</ele>
        <time>2013-03-06T18:46:29Z</time>
      </trkpt>
      <trkpt lat="59.9698818" lon="17.7542398">
        <ele>44.8386</ele>
        <time>2013-03-06T18:46:30Z</time>
      </trkpt>
      <trkpt lat="59.9698709" lon="17.7542619">
        <ele>44.8386</ele>
        <time>2013-03-06T18:46:31Z</time>
      </trkpt>
      <trkpt lat="59.9698609" lon="17.7542787">
        <ele>44.8386</ele>
        <time>2013-03-06T18:46:32Z</time>
      </trkpt>
      <trkpt lat="59.9698517" lon="17.7542971">
        <ele>44.8386</ele>
        <time>2013-03-06T18:46:33Z</time>
      </trkpt>
      <trkpt lat="59.9698423" lon="17.754322">
        <ele>45.3192</ele>
        <time>2013-03-06T18:46:34Z</time>
      </trkpt>
      <trkpt lat="59.9698318" lon="17.7543469">
        <ele>45.3192</ele>
        <time>2013-03-06T18:46:35Z</time>
      </trkpt>
      <trkpt lat="59.9698205" lon="17.7543687">
        <ele>45.3192</ele>
        <time>2013-03-06T18:46:36Z</time>
      </trkpt>
      <trkpt lat="59.969809" lon="17.7543896">
        <ele>45.7999</ele>
        <time>2013-03-06T18:46:37Z</time>
      </trkpt>
      <trkpt lat="59.9697967" lon="17.7544111">
        <ele>45.7999</ele>
        <time>2013-03-06T18:46:38Z</time>
      </trkpt>
      <trkpt lat="59.9697842" lon="17.7544284">
        <ele>45.7999</ele>
        <time>2013-03-06T18:46:39Z</time>
      </trkpt>
      <trkpt lat="59.9697713" lon="17.7544498">
        <ele>45.7999</ele>
        <time>2013-03-06T18:46:40Z</time>
      </trkpt>
      <trkpt lat="59.9697594" lon="17.7544719">
        <ele>45.7999</ele>
        <time>2013-03-06T18:46:41Z</time>
      </trkpt>
      <trkpt lat="59.9697488" lon="17.7544912">
        <ele>45.7999</ele>
        <time>2013-03-06T18:46:42Z</time>
      </trkpt>
      <trkpt lat="59.9697415" lon="17.7545076">
        <ele>45.7999</ele>
        <time>2013-03-06T18:46:43Z</time>
      </trkpt>
      <trkpt lat="59.9697332" lon="17.7545271">
        <ele>45.7999</ele>
        <time>2013-03-06T18:46:44Z</time>
      </trkpt>
      <trkpt lat="59.969722" lon="17.7545448">
        <ele>45.7999</ele>
        <time>2013-03-06T18:46:45Z</time>
      </trkpt>
      <trkpt lat="59.9697075" lon="17.7545653">
        <ele>45.3192</ele>
        <time>2013-03-06T18:46:46Z</time>
      </trkpt>
      <trkpt lat="59.9696952" lon="17.754589">
        <ele>45.7999</ele>
        <time>2013-03-06T18:46:47Z</time>
      </trkpt>
      <trkpt lat="59.9696842" lon="17.7546152">
        <ele>45.7999</ele>
        <time>2013-03-06T18:46:48Z</time>
      </trkpt>
      <trkpt lat="59.9696739" lon="17.7546393">
        <ele>45.7999</ele>
        <time>2013-03-06T18:46:49Z</time>
      </trkpt>
      <trkpt lat="59.969663" lon="17.7546631">
        <ele>45.7999</ele>
        <time>2013-03-06T18:46:50Z</time>
      </trkpt>
      <trkpt lat="59.9696526" lon="17.7546817">
        <ele>45.7999</ele>
        <time>2013-03-06T18:46:51Z</time>
      </trkpt>
      <trkpt lat="59.9696424" lon="17.7547024">
        <ele>45.7999</ele>
        <time>2013-03-06T18:46:52Z</time>
      </trkpt>
      <trkpt lat="59.9696342" lon="17.7547237">
        <ele>45.7999</ele>
        <time>2013-03-06T18:46:53Z</time>
      </trkpt>
      <trkpt lat="59.9696291" lon="17.7547388">
        <ele>45.3192</ele>
        <time>2013-03-06T18:46:54Z</time>
      </trkpt>
      <trkpt lat="59.9696211" lon="17.7547576">
        <ele>45.3192</ele>
        <time>2013-03-06T18:46:55Z</time>
      </trkpt>
      <trkpt lat="59.9696119" lon="17.7547801">
        <ele>45.3192</ele>
        <time>2013-03-06T18:46:56Z</time>
      </trkpt>
      <trkpt lat="59.9696022" lon="17.7548015">
        <ele>45.3192</ele>
        <time>2013-03-06T18:46:57Z</time>
      </trkpt>
      <trkpt lat="59.969592" lon="17.7548216">
        <ele>45.3192</ele>
        <time>2013-03-06T18:46:58Z</time>
      </trkpt>
      <trkpt lat="59.9695808" lon="17.7548431">
        <ele>45.3192</ele>
        <time>2013-03-06T18:46:59Z</time>
      </trkpt>
      <trkpt lat="59.9695705" lon="17.7548626">
        <ele>45.3192</ele>
        <time>2013-03-06T18:47:00Z</time>
      </trkpt>
      <trkpt lat="59.9695607" lon="17.7548823">
        <ele>44.8386</ele>
        <time>2013-03-06T18:47:01Z</time>
      </trkpt>
      <trkpt lat="59.9695498" lon="17.7549028">
        <ele>44.8386</ele>
        <time>2013-03-06T18:47:02Z</time>
      </trkpt>
      <trkpt lat="59.9695397" lon="17.7549258">
        <ele>44.8386</ele>
        <time>2013-03-06T18:47:03Z</time>
      </trkpt>
      <trkpt lat="59.96953" lon="17.7549458">
        <ele>44.358</ele>
        <time>2013-03-06T18:47:04Z</time>
      </trkpt>
      <trkpt lat="59.9695196" lon="17.7549662">
        <ele>44.358</ele>
        <time>2013-03-06T18:47:05Z</time>
      </trkpt>
      <trkpt lat="59.9695099" lon="17.7549847">
        <ele>44.358</ele>
        <time>2013-03-06T18:47:06Z</time>
      </trkpt>
      <trkpt lat="59.9694996" lon="17.7550047">
        <ele>44.358</ele>
        <time>2013-03-06T18:47:07Z</time>
      </trkpt>
      <trkpt lat="59.9694912" lon="17.7550242">
        <ele>44.358</ele>
        <time>2013-03-06T18:47:08Z</time>
      </trkpt>
      <trkpt lat="59.9694839" lon="17.7550442">
        <ele>43.8773</ele>
        <time>2013-03-06T18:47:09Z</time>
      </trkpt>
      <trkpt lat="59.9694766" lon="17.7550654">
        <ele>44.358</ele>
        <time>2013-03-06T18:47:10Z</time>
      </trkpt>
      <trkpt lat="59.9694684" lon="17.7550872">
        <ele>44.358</ele>
        <time>2013-03-06T18:47:11Z</time>
      </trkpt>
      <trkpt lat="59.9694594" lon="17.7551096">
        <ele>44.8386</ele>
        <time>2013-03-06T18:47:12Z</time>
      </trkpt>
      <trkpt lat="59.9694497" lon="17.7551329">
        <ele>44.8386</ele>
        <time>2013-03-06T18:47:13Z</time>
      </trkpt>
      <trkpt lat="59.9694404" lon="17.7551521">
        <ele>44.8386</ele>
        <time>2013-03-06T18:47:14Z</time>
      </trkpt>
      <trkpt lat="59.969431" lon="17.7551737">
        <ele>45.3192</ele>
        <time>2013-03-06T18:47:15Z</time>
      </trkpt>
      <trkpt lat="59.9694202" lon="17.7551966">
        <ele>45.3192</ele>
        <time>2013-03-06T18:47:16Z</time>
      </trkpt>
      <trkpt lat="59.9694087" lon="17.7552194">
        <ele>45.3192</ele>
        <time>2013-03-06T18:47:17Z</time>
      </trkpt>
      <trkpt lat="59.9693958" lon="17.7552443">
        <ele>45.7999</ele>
        <time>2013-03-06T18:47:18Z</time>
      </trkpt>
      <trkpt lat="59.969384" lon="17.7552675">
        <ele>46.2806</ele>
        <time>2013-03-06T18:47:19Z</time>
      </trkpt>
      <trkpt lat="59.9693722" lon="17.7552929">
        <ele>46.7612</ele>
        <time>2013-03-06T18:47:20Z</time>
      </trkpt>
      <trkpt lat="59.9693617" lon="17.7553156">
        <ele>46.7612</ele>
        <time>2013-03-06T18:47:21Z</time>
      </trkpt>
      <trkpt lat="59.9693502" lon="17.7553389">
        <ele>46.7612</ele>
        <time>2013-03-06T18:47:22Z</time>
      </trkpt>
      <trkpt lat="59.9693383" lon="17.755365">
        <ele>46.7612</ele>
        <time>2013-03-06T18:47:23Z</time>
      </trkpt>
      <trkpt lat="59.9693285" lon="17.7553922">
        <ele>47.2418</ele>
        <time>2013-03-06T18:47:24Z</time>
      </trkpt>
      <trkpt lat="59.96932" lon="17.7554189">
        <ele>47.2418</ele>
        <time>2013-03-06T18:47:25Z</time>
      </trkpt>
      <trkpt lat="59.9693102" lon="17.7554412">
        <ele>47.7225</ele>
        <time>2013-03-06T18:47:26Z</time>
      </trkpt>
      <trkpt lat="59.9692988" lon="17.7554632">
        <ele>47.2418</ele>
        <time>2013-03-06T18:47:27Z</time>
      </trkpt>
      <trkpt lat="59.969288" lon="17.755486">
        <ele>47.7225</ele>
        <time>2013-03-06T18:47:28Z</time>
      </trkpt>
      <trkpt lat="59.9692783" lon="17.7555049">
        <ele>47.2418</ele>
        <time>2013-03-06T18:47:29Z</time>
      </trkpt>
      <trkpt lat="59.9692673" lon="17.7555253">
        <ele>47.2418</ele>
        <time>2013-03-06T18:47:30Z</time>
      </trkpt>
      <trkpt lat="59.9692581" lon="17.7555466">
        <ele>47.2418</ele>
        <time>2013-03-06T18:47:31Z</time>
      </trkpt>
      <trkpt lat="59.9692476" lon="17.7555712">
        <ele>47.2418</ele>
        <time>2013-03-06T18:47:32Z</time>
      </trkpt>
      <trkpt lat="59.9692356" lon="17.7555965">
        <ele>47.2418</ele>
        <time>2013-03-06T18:47:33Z</time>
      </trkpt>
      <trkpt lat="59.9692248" lon="17.7556192">
        <ele>47.2418</ele>
        <time>2013-03-06T18:47:34Z</time>
      </trkpt>
      <trkpt lat="59.969215" lon="17.7556405">
        <ele>47.2418</ele>
        <time>2013-03-06T18:47:35Z</time>
      </trkpt>
      <trkpt lat="59.9692046" lon="17.7556629">
        <ele>46.7612</ele>
        <time>2013-03-06T18:47:36Z</time>
      </trkpt>
      <trkpt lat="59.9691933" lon="17.7556882">
        <ele>47.2418</ele>
        <time>2013-03-06T18:47:37Z</time>
      </trkpt>
      <trkpt lat="59.9691828" lon="17.7557096">
        <ele>46.7612</ele>
        <time>2013-03-06T18:47:38Z</time>
      </trkpt>
      <trkpt lat="59.969171" lon="17.7557317">
        <ele>46.7612</ele>
        <time>2013-03-06T18:47:39Z</time>
      </trkpt>
      <trkpt lat="59.9691592" lon="17.7557541">
        <ele>46.7612</ele>
        <time>2013-03-06T18:47:40Z</time>
      </trkpt>
      <trkpt lat="59.9691466" lon="17.7557809">
        <ele>46.7612</ele>
        <time>2013-03-06T18:47:41Z</time>
      </trkpt>
      <trkpt lat="59.9691347" lon="17.7558042">
        <ele>46.7612</ele>
        <time>2013-03-06T18:47:42Z</time>
      </trkpt>
      <trkpt lat="59.969122" lon="17.7558305">
        <ele>47.2418</ele>
        <time>2013-03-06T18:47:43Z</time>
      </trkpt>
      <trkpt lat="59.9691113" lon="17.7558538">
        <ele>47.2418</ele>
        <time>2013-03-06T18:47:44Z</time>
      </trkpt>
      <trkpt lat="59.9690996" lon="17.7558805">
        <ele>47.7225</ele>
        <time>2013-03-06T18:47:45Z</time>
      </trkpt>
      <trkpt lat="59.9690893" lon="17.7559045">
        <ele>47.7225</ele>
        <time>2013-03-06T18:47:46Z</time>
      </trkpt>
      <trkpt lat="59.96908" lon="17.7559275">
        <ele>47.7225</ele>
        <time>2013-03-06T18:47:47Z</time>
      </trkpt>
      <trkpt lat="59.9690716" lon="17.7559482">
        <ele>48.2034</ele>
        <time>2013-03-06T18:47:48Z</time>
      </trkpt>
      <trkpt lat="59.9690633" lon="17.7559669">
        <ele>48.2034</ele>
        <time>2013-03-06T18:47:49Z</time>
      </trkpt>
      <trkpt lat="59.9690531" lon="17.7559836">
        <ele>47.7225</ele>
        <time>2013-03-06T18:47:50Z</time>
      </trkpt>
      <trkpt lat="59.9690401" lon="17.756002">
        <ele>47.2418</ele>
        <time>2013-03-06T18:47:51Z</time>
      </trkpt>
      <trkpt lat="59.9690302" lon="17.7560164">
        <ele>46.7612</ele>
        <time>2013-03-06T18:47:52Z</time>
      </trkpt>
      <trkpt lat="59.9690188" lon="17.756032">
        <ele>46.2806</ele>
        <time>2013-03-06T18:47:53Z</time>
      </trkpt>
      <trkpt lat="59.9690079" lon="17.756049">
        <ele>46.2806</ele>
        <time>2013-03-06T18:47:54Z</time>
      </trkpt>
      <trkpt lat="59.9689976" lon="17.7560679">
        <ele>45.7999</ele>
        <time>2013-03-06T18:47:55Z</time>
      </trkpt>
      <trkpt lat="59.9689875" lon="17.7560854">
        <ele>45.3192</ele>
        <time>2013-03-06T18:47:56Z</time>
      </trkpt>
    </trkseg>
  </trk>
</gpx>